Temp     Hi    Low   Out    Dew  Wind  Wind   Wind    Hi    Hi   Wind   Heat    THW   THSW                Rain  Solar   Solar Hi Solar   UV    UV    Hi     Heat    Cool    In     In    In     In           Wind  Wind    ISS   Arc.
  Date    Time     Out   Temp   Temp   Hum    Pt. Speed   Dir    Run Speed   Dir  Chill  Index  Index  Index   Bar    Rain  Rate   Rad.  Energy    Rad.  Index  Dose   UV     D-D     D-D    Temp   Hum    Dew   Heat     ET   Samp   Tx   Recept  Int.
---------------------------------------------------------------------------------------------------------------------------------------------------------------------------------------------------------------------------------------------------------
19/02/24   0.30   11.3   12.4   11.3    85    8.8   0.0    NW   0.00   3.2    NW   11.3   11.3   11.3    9.5  1027.5  0.00   0.0     0     0.00      0     0.0  0.00   0.0   0.147   0.000   14.0    74    9.4   13.7    0.00   698    1    100.0   30 
19/02/24   1.00   11.1   11.4   11.1    85    8.7   0.0   ---   0.00   0.0   ---   11.1   11.1   11.1    9.3  1027.4  0.00   0.0     0     0.00      0     0.0  0.00   0.0   0.150   0.000   13.9    74    9.4   13.6    0.00   692    1    100.0   30 
19/02/24   1.30   11.0   11.1   10.9    86    8.7   0.0   ---   0.00   0.0   ---   11.0   11.0   11.0    9.2  1027.0  0.00   0.0     0     0.00      0     0.0  0.00   0.0   0.153   0.000   13.9    73    9.2   13.6    0.00   701    1    100.0   30 
19/02/24   2.00   10.7   11.0   10.6    86    8.4   0.0   ---   0.00   0.0   ---   10.7   10.7   10.7    8.9  1026.6  0.00   0.0     0     0.00      0     0.0  0.00   0.0   0.160   0.000   13.9    73    9.1   13.6    0.00   691    1    100.0   30 
19/02/24   2.30   10.6   10.8   10.4    86    8.3   0.0   ---   0.00   0.0   ---   10.6   10.6   10.6    8.8  1026.5  0.00   0.0     0     0.00      0     0.0  0.00   0.0   0.162   0.000   13.9    73    9.1   13.6    0.00   703    1    100.0   30 
19/02/24   3.00   10.8   10.8   10.4    87    8.7   0.0   ---   0.00   0.0   ---   10.8   10.8   10.8    9.1  1026.1  0.00   0.0     0     0.00      0     0.0  0.00   0.0   0.157   0.000   13.8    73    9.1   13.5    0.00   690    1    100.0   30 
19/02/24   3.30   11.7   11.7   10.6    87    9.6   0.0    NW   0.00   4.8   NNW   11.7   11.7   11.7    9.9  1026.0  0.00   0.0     0     0.00      0     0.0  0.00   0.0   0.139   0.000   13.8    73    9.1   13.5    0.00   701    1    100.0   30 
19/02/24   4.00   13.4   13.4   11.7    86   11.1   4.8   NNW   2.41  16.1   NNW   13.4   13.4   13.4   11.7  1025.8  0.00   0.0     0     0.00      0     0.0  0.00   0.0   0.102   0.000   13.8    74    9.3   13.5    0.00   693    1    100.0   30 
19/02/24   4.30   13.8   13.8   13.4    84   11.1   8.0     N   4.02  19.3     N   13.4   13.7   13.4   11.7  1025.4  0.00   0.0     0     0.00      0     0.0  0.00   0.0   0.095   0.000   13.8    75    9.5   13.6    0.00   701    1    100.0   30 
19/02/24   5.00   13.8   13.8   13.7    82   10.8   6.4     N   3.22  16.1    NW   13.8   13.7   13.7   12.0  1025.5  0.00   0.0     0     0.00      0     0.0  0.00   0.0   0.095   0.000   13.9    75    9.6   13.7    0.00   691    1    100.0   30 
19/02/24   5.30   13.6   13.8   13.6    81   10.4   4.8   NNW   2.41   9.7     N   13.6   13.4   13.4   11.7  1025.2  0.00   0.0     0     0.00      0     0.0  0.00   0.0   0.098   0.000   13.9    76    9.8   13.7    0.00   696    1    100.0   30 
19/02/24   6.00   13.8   13.8   13.6    82   10.8   3.2   NNW   1.61   9.7   NNW   13.8   13.7   13.7   12.1  1025.3  0.00   0.0     0     0.00      0     0.0  0.00   0.0   0.094   0.000   13.9    76    9.8   13.7    0.00   700    1    100.0   30 
19/02/24   6.30   13.9   13.9   13.8    82   10.9   6.4     N   3.22  16.1     N   13.9   13.8   13.8   12.1  1025.1  0.00   0.0     0     0.00      0     0.0  0.00   0.0   0.093   0.000   13.9    76    9.8   13.7    0.00   691    1    100.0   30 
19/02/24   7.00   13.9   13.9   13.8    81   10.7   6.4     N   3.22  14.5     N   13.9   13.8   13.8   12.1  1024.9  0.00   0.0     0     0.00      0     0.0  0.00   0.0   0.091   0.000   13.9    76    9.8   13.7    0.00   702    1    100.0   30 
19/02/24   7.30   13.9   13.9   13.8    82   10.9   4.8   NNE   2.41  16.1   NNW   13.9   13.8   13.8   12.2  1025.0  0.00   0.0     2     0.09      9     0.0  0.00   0.0   0.091   0.000   13.9    76    9.8   13.7    0.00   694    1    100.0   30 
19/02/24   8.00   14.0   14.1   13.9    81   10.8   8.0   NNE   4.02  20.9     N   13.7   13.9   13.6   12.1  1025.1  0.00   0.0    17     0.73     30     0.0  0.00   0.0   0.090   0.000   13.9    76    9.8   13.7    0.00   694    1    100.0   30 
19/02/24   8.30   14.3   14.3   13.8    81   11.1   3.2   NNE   1.61  11.3    NE   14.3   14.2   14.2   15.5  1025.3  0.00   0.0   102     4.39    183     0.0  0.00   0.0   0.084   0.000   14.0    76    9.8   13.7    0.00   697    1    100.0   30 
19/02/24   9.00   14.3   14.3   14.2    80   10.9   4.8   NNE   2.41  14.5    NW   14.3   14.2   14.2   14.5  1025.5  0.00   0.0    53     2.28     90     0.0  0.00   0.0   0.083   0.000   14.1    76    9.9   13.8    0.05   693    1    100.0   30 
19/02/24   9.30   14.6   14.8   14.3    79   11.0   6.4   NNE   3.22  16.1     N   14.6   14.4   14.4   16.4  1025.4  0.00   0.0   139     5.98    404     0.0  0.00   0.0   0.078   0.000   14.1    76    9.9   13.8    0.00   696    1    100.0   30 
19/02/24  10.00   14.4   14.6   14.3    79   10.8   6.4     N   3.22  14.5   NNW   14.4   14.3   14.3   14.5  1025.5  0.00   0.0    60     2.58     84     0.0  0.00   0.0   0.081   0.000   14.1    76    9.9   13.8    0.08   698    1    100.0   30 
19/02/24  10.30   14.7   14.8   14.4    79   11.1   4.8   NNE   2.41  12.9   NNE   14.7   14.6   14.6   16.3  1025.3  0.00   0.0   141     6.06    441     0.0  0.00   0.0   0.075   0.000   14.2    76   10.0   13.9    0.00   693    1    100.0   30 
19/02/24  11.00   15.1   15.2   14.7    78   11.2   6.4   NNE   3.22  14.5   NNE   15.1   14.9   14.9   18.8  1025.3  0.00   0.0   276    11.87    591     0.0  0.00   0.0   0.068   0.000   14.2    76   10.0   14.0    0.15   699    1    100.0   30 
19/02/24  11.30   14.9   15.1   14.9    77   10.9   4.8   NNE   2.41  12.9   NNE   14.9   14.7   14.7   16.7  1025.2  0.00   0.0   163     7.01    195     0.0  0.00   0.0   0.071   0.000   14.2    76   10.0   14.0    0.00   696    1    100.0   30 
19/02/24  12.00   15.2   15.6   14.9    76   11.0   6.4   NNE   3.22  14.5   NNW   15.2   15.0   15.0   18.4  1025.0  0.00   0.0   248    10.67    367     0.0  0.00   0.0   0.065   0.000   14.3    76   10.2   14.1    0.15   695    1    100.0   30 
19/02/24  12.30   15.6   15.6   15.2    72   10.5   8.0   NNE   4.02  16.1    NE   15.6   15.3   15.3   18.7  1024.7  0.00   0.0   247    10.62    631     0.0  0.00   0.0   0.058   0.000   14.4    76   10.2   14.2    0.00   697    1    100.0   30 
19/02/24  13.00   15.3   16.3   15.3    77   11.3   1.6    SE   0.80  11.3   ESE   15.3   15.1   15.1   21.8  1024.3  0.00   0.0   517    22.23    701     0.0  0.00   0.0   0.064   0.000   14.7    75   10.3   14.4    0.23   698    1    100.0   30 
19/02/24  13.30   16.1   16.2   15.2    74   11.4   3.2    NE   1.61  17.7   NNE   16.1   15.8   15.8   23.1  1023.7  0.00   0.0   522    22.45    619     0.0  0.00   0.0   0.047   0.000   14.9    74   10.3   14.7    0.00   697    1    100.0   30 
19/02/24  14.00   15.7   16.2   15.4    75   11.2   1.6    NE   0.80  11.3     E   15.7   15.4   15.4   20.1  1023.5  0.00   0.0   319    13.72    621     0.0  0.00   0.0   0.056   0.000   15.1    74   10.5   14.8    0.25   693    1    100.0   30 
19/02/24  14.30   15.1   15.7   15.1    78   11.3   3.2    SE   1.61  11.3   SSE   15.1   14.9   14.9   21.5  1023.5  0.00   0.0   407    17.50    584     0.0  0.00   0.0   0.067   0.000   15.3    73   10.5   15.0    0.00   701    1    100.0   30 
19/02/24  15.00   15.1   15.6   15.1    78   11.3   3.2    SE   1.61  11.3    SE   15.1   14.9   14.9   21.8  1023.4  0.00   0.0   387    16.64    527     0.0  0.00   0.0   0.067   0.000   15.6    72   10.5   15.3    0.23   697    1    100.0   30 
19/02/24  15.30   15.6   15.6   15.1    77   11.6   4.8   NNE   2.41  14.5   NNE   15.6   15.4   15.4   20.5  1023.4  0.00   0.0   275    11.83    404     0.0  0.00   0.0   0.057   0.000   15.6    72   10.6   15.3    0.00   695    1    100.0   30 
19/02/24  16.00   15.5   15.7   15.5    76   11.3   8.0   NNE   4.02  16.1   NNE   15.5   15.3   15.3   17.3  1023.4  0.00   0.0   300    12.90    343     0.0  0.00   0.0   0.059   0.000   15.6    72   10.5   15.3    0.18   696    1    100.0   30 
19/02/24  16.30   15.3   15.6   15.3    77   11.3   8.0   NNE   4.02  16.1     N   15.3   15.2   15.1   16.2  1023.3  0.00   0.0   225     9.68    265     0.0  0.00   0.0   0.063   0.000   15.4    73   10.6   15.1    0.00   700    1    100.0   30 
19/02/24  17.00   15.0   15.4   15.0    77   11.0   8.0     N   4.02  16.1     N   14.9   14.8   14.7   14.6  1023.2  0.00   0.0   136     5.85    181     0.0  0.00   0.0   0.069   0.000   15.2    74   10.6   14.9    0.10   694    1    100.0   30 
19/02/24  17.30   14.5   15.0   14.5    77   10.5   8.0   NNE   4.02  16.1   NNE   14.3   14.3   14.1   12.9  1023.3  0.00   0.0    46     1.98     88     0.0  0.00   0.0   0.080   0.000   15.0    74   10.4   14.7    0.00   694    1    100.0   30 
19/02/24  18.00   14.0   14.5   13.9    78   10.2   9.7   NNE   4.83  17.7    NE   13.4   13.8   13.2   11.7  1023.2  0.00   0.0    10     0.43     19     0.0  0.00   0.0   0.090   0.000   14.8    74   10.2   14.6    0.03   700    1    100.0   30 
19/02/24  18.30   13.8   14.1   13.7    77    9.8  11.3   NNE   5.63  20.9   NNE   13.0   13.6   12.8   11.1  1023.3  0.00   0.0     0     0.00      0     0.0  0.00   0.0   0.095   0.000   14.7    74   10.1   14.4    0.00   692    1    100.0   30 
19/02/24  19.00   13.7   13.8   13.6    79   10.1   9.7   NNE   4.83  19.3     N   13.1   13.5   12.9   11.2  1023.8  0.00   0.0     0     0.00      0     0.0  0.00   0.0   0.097   0.000   14.6    74   10.0   14.3    0.00   703    1    100.0   30 
19/02/24  19.30   13.7   13.8   13.6    79   10.1  12.9   NNE   6.44  22.5   NNE   12.4   13.5   12.3   10.7  1023.9  0.00   0.0     0     0.00      0     0.0  0.00   0.0   0.097   0.000   14.6    75   10.2   14.3    0.00   693    1    100.0   30 
19/02/24  20.00   13.2   13.7   13.2    80    9.8   9.7   NNE   4.83  16.1   NNW   12.4   13.0   12.3   10.6  1024.0  0.00   0.0     0     0.00      0     0.0  0.00   0.0   0.108   0.000   14.5    75   10.1   14.2    0.00   697    1    100.0   30 
19/02/24  20.30   13.0   13.2   13.0    81    9.8   9.7   NNE   4.83  17.7     N   12.3   12.8   12.1   10.4  1024.2  0.00   0.0     0     0.00      0     0.0  0.00   0.0   0.111   0.000   14.4    75   10.1   14.2    0.00   699    1    100.0   30 
19/02/24  21.00   12.9   13.1   12.8    82    9.9   9.7     N   4.83  17.7     N   12.1   12.8   12.0   10.3  1024.2  0.00   0.0     0     0.00      0     0.0  0.00   0.0   0.113   0.000   14.4    75   10.1   14.2    0.00   693    1    100.0   30 
19/02/24  21.30   12.0   12.9   12.0    80    8.7   1.6     N   0.80   8.0   NNE   12.0   11.8   11.8   10.1  1024.2  0.00   0.0     0     0.00      0     0.0  0.00   0.0   0.132   0.000   14.4    75   10.0   14.1    0.00   701    1    100.0   30 
19/02/24  22.00   12.2   12.3   11.4    80    8.8   3.2   WNW   1.61  11.3   WNW   12.2   12.0   12.0   10.2  1024.2  0.00   0.0     0     0.00      0     0.0  0.00   0.0   0.128   0.000   14.3    74    9.8   14.0    0.00   693    1    100.0   30 
19/02/24  22.30   12.1   12.4   11.7    81    8.9   1.6    NW   0.80   4.8   WNW   12.1   11.9   11.9   10.2  1024.2  0.00   0.0     0     0.00      0     0.0  0.00   0.0   0.131   0.000   14.3    74    9.8   14.0    0.00   703    1    100.0   30 
19/02/24  23.00   13.3   13.3   12.1    82   10.3   8.0   NNE   4.02  19.3   NNE   12.9   13.2   12.8   11.1  1024.0  0.00   0.0     0     0.00      0     0.0  0.00   0.0   0.104   0.000   14.3    74    9.7   13.9    0.00   692    1    100.0   30 
19/02/24  23.30   13.6   13.6   13.3    82   10.5  11.3   NNE   5.63  20.9   NNE   12.7   13.4   12.6   10.9  1023.9  0.00   0.0     0     0.00      0     0.0  0.00   0.0   0.100   0.000   14.3    75    9.9   14.0    0.00   701    1    100.0   30 
20/02/24  00.00   13.6   13.7   13.5    82   10.6  11.3   NNE   5.63  20.9     N   12.8   13.5   12.7   11.0  1023.9  0.00   0.0     0     0.00      0     0.0  0.00   0.0   0.098   0.000   14.2    76   10.0   14.0    0.00   693    1    100.0   30 
20/02/24   0.30   13.4   13.6   13.4    82   10.4  11.3   NNE   5.63  20.9   NNE   12.6   13.3   12.4   10.7  1023.7  0.00   0.0     0     0.00      0     0.0  0.00   0.0   0.102   0.000   14.2    76   10.0   14.0    0.00   695    1    100.0   30 
20/02/24   1.00   12.8   13.4   12.8    83   10.0   6.4     N   3.22  12.9   NNE   12.6   12.7   12.4   10.7  1023.4  0.00   0.0     0     0.00      0     0.0  0.00   0.0   0.116   0.000   14.2    76   10.0   14.0    0.00   699    1    100.0   30 
20/02/24   1.30   12.8   12.8   12.6    84   10.1   6.4     N   3.22  14.5   NNE   12.6   12.7   12.5   10.8  1023.2  0.00   0.0     0     0.00      0     0.0  0.00   0.0   0.116   0.000   14.2    76   10.0   14.0    0.00   694    1    100.0   30 
20/02/24   2.00   12.4   12.9   12.4    84    9.8   4.8     N   2.41  12.9   NNE   12.4   12.4   12.4   10.7  1022.7  0.00   0.0     0     0.00      0     0.0  0.00   0.0   0.123   0.000   14.2    76   10.0   14.0    0.00   701    1    100.0   30 
20/02/24   2.30   12.4   12.4   11.8    85   10.0   3.2   NNW   1.61   8.0    NW   12.4   12.4   12.4   10.7  1022.4  0.00   0.0     0     0.00      0     0.0  0.00   0.0   0.123   0.000   14.2    76   10.0   13.9    0.00   691    1    100.0   30 
20/02/24   3.00   12.3   12.5   12.3    85    9.8   4.8     N   2.41  12.9   NNE   12.3   12.2   12.2   10.5  1022.3  0.00   0.0     0     0.00      0     0.0  0.00   0.0   0.126   0.000   14.2    76   10.0   13.9    0.00   701    1    100.0   30 
20/02/24   3.30   12.6   12.6   12.3    85   10.2   8.0   NNE   4.02  20.9   NNE   12.1   12.6   12.0   10.3  1022.0  0.00   0.0     0     0.00      0     0.0  0.00   0.0   0.119   0.000   14.2    76   10.0   13.9    0.00   693    1    100.0   30 
20/02/24   4.00   12.8   12.8   12.6    84   10.1   8.0   NNE   4.02  14.5    NE   12.3   12.7   12.2   10.5  1022.1  0.00   0.0     0     0.00      0     0.0  0.00   0.0   0.116   0.000   14.2    76   10.0   13.9    0.00   701    1    100.0   30 
20/02/24   4.30   12.8   12.9   12.7    84   10.1   8.0   NNE   4.02  14.5   NNE   12.3   12.7   12.2   10.5  1022.0  0.00   0.0     0     0.00      0     0.0  0.00   0.0   0.116   0.000   14.2    77   10.2   13.9    0.00   691    1    100.0   30 
20/02/24   5.00   13.2   13.2   12.7    84   10.5  11.3   NNE   5.63  19.3   NNE   12.2   13.1   12.2   10.4  1022.4  0.00   0.0     0     0.00      0     0.0  0.00   0.0   0.108   0.000   14.1    77   10.1   13.9    0.00   695    1    100.0   30 
20/02/24   5.30   12.9   13.2   12.8    84   10.2   8.0     N   4.02  16.1   NNE   12.4   12.8   12.3   10.6  1022.4  0.00   0.0     0     0.00      0     0.0  0.00   0.0   0.113   0.000   14.1    77   10.1   13.9    0.00   698    1    100.0   30 
20/02/24   6.00   12.8   12.9   12.8    84   10.2   6.4     N   3.22  12.9   NNE   12.6   12.8   12.6   10.8  1022.3  0.00   0.0     0     0.00      0     0.0  0.00   0.0   0.115   0.000   14.1    77   10.1   13.9    0.00   694    1    100.0   30 
20/02/24   6.30   12.8   12.9   12.8    85   10.3   4.8   NNW   2.41   9.7   NNW   12.8   12.7   12.7   11.0  1022.1  0.00   0.0     0     0.00      0     0.0  0.00   0.0   0.116   0.000   14.1    77   10.1   13.9    0.00   701    1    100.0   30 
20/02/24   7.00   12.6   12.8   12.4    85   10.2   3.2     N   1.61   8.0     N   12.6   12.6   12.6   10.8  1022.1  0.00   0.0     0     0.00      0     0.0  0.00   0.0   0.119   0.000   14.1    77   10.1   13.9    0.00   692    1    100.0   30 
20/02/24   7.30   11.9   12.6   11.9    85    9.4   0.0   NNE   0.00   4.8   NNE   11.9   11.8   11.8   10.2  1022.3  0.00   0.0     3     0.13     11     0.0  0.00   0.0   0.134   0.000   14.1    77   10.1   13.9    0.00   702    1    100.0   30 
20/02/24   8.00   10.4   11.9   10.3    85    8.0   0.0   NNE   0.00   4.8   NNE   10.4   10.4   10.4    8.8  1022.8  0.00   0.0    19     0.82     26     0.0  0.00   0.0   0.166   0.000   14.1    76    9.9   13.8    0.00   692    1    100.0   30 
20/02/24   8.30   11.1   11.1   10.4    86    8.9   3.2   NNW   1.61   9.7   NNW   11.1   11.1   11.1   10.9  1023.3  0.00   0.0    35     1.51     44     0.0  0.00   0.0   0.150   0.000   14.1    76    9.9   13.8    0.00   703    1    100.0   30 
20/02/24   9.00   12.7   12.7   11.1    85   10.2   6.4     N   3.22  14.5     N   12.4   12.6   12.4   13.3  1023.5  0.00   0.0    84     3.61    130     0.0  0.00   0.0   0.118   0.000   14.1    75    9.7   13.8    0.05   693    1    100.0   30 
20/02/24   9.30   13.4   13.4   12.7    84   10.8   6.4     N   3.22  12.9   NNE   13.3   13.4   13.3   15.2  1023.4  0.00   0.0   134     5.76    192     0.0  0.00   0.0   0.102   0.000   14.1    76    9.9   13.8    0.00   699    1    100.0   30 
20/02/24  10.00   14.2   14.2   13.4    81   11.0   6.4   NNE   3.22  11.3     N   14.2   14.1   14.1   18.4  1023.5  0.00   0.0   282    12.13    381     0.0  0.00   0.0   0.086   0.000   14.2    76   10.0   13.9    0.13   696    1    100.0   30 
20/02/24  10.30   15.6   15.6   14.2    67    9.4   6.4     N   3.22  17.7    NE   15.6   15.1   15.1   20.3  1023.4  0.00   0.0   405    17.42    480     0.0  0.00   0.0   0.058   0.000   14.3    76   10.1   14.1    0.00   696    1    100.0   30 
20/02/24  11.00   15.9   16.2   15.6    63    8.9   4.8     N   2.41  14.5   NNE   15.9   15.4   15.4   19.1  1023.5  0.00   0.0   267    11.48    512     0.0  0.00   0.0   0.050   0.000   14.3    75   10.0   14.1    0.20   694    1    100.0   30 
20/02/24  11.30   16.2   16.2   15.8    64    9.3   6.4   NNW   3.22  14.5     N   16.2   15.7   15.7   18.9  1023.7  0.00   0.0   240    10.32    290     0.0  0.00   0.0   0.045   0.000   14.3    74    9.8   14.0    0.00   700    1    100.0   30 
20/02/24  12.00   16.6   16.6   15.9    62    9.2   9.7   NNW   4.83  17.7     N   16.6   16.0   16.0   21.0  1023.4  0.00   0.0   383    16.47    605     0.0  0.00   0.0   0.037   0.000   14.5    73    9.7   14.2    0.23   695    1    100.0   30 
20/02/24  12.30   17.3   17.3   16.6    59    9.2   9.7     N   4.83  20.9   NNW   17.3   16.7   16.7   23.9  1023.0  0.00   0.0   575    24.73    580     0.0  0.00   0.0   0.022   0.000   14.7    72    9.7   14.4    0.00   695    1    100.0   30 
20/02/24  13.00   17.0   17.3   16.9    62    9.7  11.3     N   5.63  22.5   NNE   16.9   16.5   16.4   23.7  1023.0  0.00   0.0   576    24.77    578     0.0  0.00   0.0   0.028   0.000   15.0    70    9.6   14.6    0.38   700    1    100.0   30 
20/02/24  13.30   16.6   17.0   16.6    66   10.2  12.9     N   6.44  24.1     N   16.0   16.2   15.6   23.0  1023.0  0.00   0.0   564    24.26    575     0.0  0.00   0.0   0.036   0.000   15.3    69    9.7   14.9    0.00   697    1    100.0   30 
20/02/24  14.00   17.1   17.2   16.6    60    9.3  11.3     N   5.63  19.3   NNE   17.1   16.5   16.4   24.3  1022.8  0.00   0.0   539    23.18    554     0.0  0.00   0.0   0.025   0.000   15.7    68    9.8   15.3    0.38   697    1    100.0   30 
20/02/24  14.30   17.4   17.6   17.1    55    8.3  11.3   NNE   5.63  20.9   NNE   17.4   16.7   16.6   24.7  1022.7  0.00   0.0   502    21.59    522     0.0  0.00   0.0   0.019   0.000   16.1    67    9.9   15.7    0.00   696    1    100.0   30 
20/02/24  15.00   17.6   17.8   17.4    57    8.9  11.3   NNE   5.63  20.9    NE   17.6   16.9   16.9   24.9  1022.6  0.00   0.0   451    19.40    478     0.0  0.00   0.0   0.016   0.000   16.3    65    9.7   15.8    0.33   702    1    100.0   30 
20/02/24  15.30   17.1   17.7   17.1    62    9.7  12.9   NNE   6.44  22.5   NNE   16.5   16.6   16.0   23.2  1022.6  0.00   0.0   390    16.77    420     0.0  0.00   0.0   0.027   0.000   16.4    63    9.4   15.9    0.00   694    1    100.0   30 
20/02/24  16.00   17.2   17.3   17.0    60    9.4  12.9   NNE   6.44  22.5   NNE   16.7   16.6   16.1   18.1  1022.7  0.00   0.0   322    13.85    355     0.0  0.00   0.0   0.023   0.000   16.3    63    9.3   15.8    0.25   694    1    100.0   30 
20/02/24  16.30   17.7   17.7   17.2    56    8.8  11.3   NNE   5.63  24.1     N   17.7   17.0   17.0   18.2  1022.7  0.00   0.0   253    10.88    287     0.0  0.00   0.0   0.014   0.000   15.9    63    8.9   15.4    0.00   698    1    100.0   30 
20/02/24  17.00   16.7   17.7   16.7    63    9.6  14.5   NNE   7.24  24.1   NNE   15.6   16.2   15.1   15.2  1022.9  0.00   0.0   161     6.92    213     0.0  0.00   0.0   0.035   0.000   15.7    64    8.9   15.1    0.18   699    1    100.0   30 
20/02/24  17.30   15.9   16.7   15.9    70   10.4  14.5   NNE   7.24  27.4     N   14.7   15.6   14.3   13.7  1023.2  0.00   0.0    81     3.48    113     0.0  0.00   0.0   0.051   0.000   15.5    65    8.9   15.0    0.00   695    1    100.0   30 
20/02/24  18.00   15.1   15.9   15.1    71    9.9   9.7     N   4.83  22.5   NNW   14.8   14.8   14.4   12.8  1023.7  0.00   0.0    11     0.47     21     0.0  0.00   0.0   0.067   0.000   15.4    67    9.3   14.9    0.05   697    1    100.0   30 
20/02/24  18.30   14.6   15.2   14.6    70    9.2   6.4     N   3.22  14.5   NNW   14.6   14.2   14.2   12.4  1023.9  0.00   0.0     0     0.00      0     0.0  0.00   0.0   0.078   0.000   15.3    67    9.2   14.8    0.00   698    1    100.0   30 
20/02/24  19.00   14.1   14.6   14.1    71    8.9   6.4   NNW   3.22  12.9   NNE   14.1   13.7   13.7   12.0  1024.0  0.00   0.0     0     0.00      0     0.0  0.00   0.0   0.088   0.000   15.2    67    9.1   14.7    0.00   693    1    100.0   30 
20/02/24  19.30   13.8   14.1   13.6    72    8.9   6.4     N   3.22  12.9     N   13.8   13.4   13.4   11.7  1024.1  0.00   0.0     0     0.00      0     0.0  0.00   0.0   0.094   0.000   15.1    68    9.2   14.6    0.00   702    1    100.0   30 
20/02/24  20.00   13.7   14.0   13.6    73    8.9   6.4     N   3.22  11.3     N   13.6   13.3   13.3   11.6  1024.0  0.00   0.0     0     0.00      0     0.0  0.00   0.0   0.097   0.000   15.0    68    9.1   14.6    0.00   694    1    100.0   30 
20/02/24  20.30   13.2   13.7   13.2    75    8.8   4.8     N   2.41   9.7     N   13.2   12.8   12.8   11.1  1024.7  0.00   0.0     0     0.00      0     0.0  0.00   0.0   0.108   0.000   14.9    68    9.0   14.4    0.00   701    1    100.0   30 
20/02/24  21.00   12.8   13.2   12.8    76    8.7   4.8     N   2.41   8.0   NNW   12.8   12.6   12.6   10.8  1024.9  0.00   0.0     0     0.00      0     0.0  0.00   0.0   0.115   0.000   14.9    69    9.2   14.4    0.00   692    1    100.0   30 
20/02/24  21.30   12.9   12.9   12.6    77    9.0   3.2     N   1.61   6.4     N   12.9   12.7   12.7   11.0  1025.2  0.00   0.0     0     0.00      0     0.0  0.00   0.0   0.112   0.000   14.8    69    9.2   14.4    0.00   698    1    100.0   30 
20/02/24  22.00   12.8   13.2   12.8    77    8.9   4.8     N   2.41   8.0   NNE   12.8   12.6   12.6   10.9  1025.3  0.00   0.0     0     0.00      0     0.0  0.00   0.0   0.115   0.000   14.8    69    9.1   14.3    0.00   697    1    100.0   30 
20/02/24  22.30   12.1   12.8   12.1    77    8.2   4.8     N   2.41   8.0   NNE   12.1   11.9   11.9   10.1  1025.4  0.00   0.0     0     0.00      0     0.0  0.00   0.0   0.130   0.000   14.7    69    9.1   14.3    0.00   697    1    100.0   30 
20/02/24  23.00   10.4   12.1   10.4    80    7.1   3.2   NNW   1.61   6.4   NNW   10.4   10.3   10.3    8.5  1025.4  0.00   0.0     0     0.00      0     0.0  0.00   0.0   0.166   0.000   14.6    69    9.0   14.2    0.00   699    1    100.0   30 
20/02/24  23.30   10.1   10.4    9.5    82    7.1   1.6   NNE   0.80   6.4   NNE   10.1   10.1   10.1    8.2  1025.4  0.00   0.0     0     0.00      0     0.0  0.00   0.0   0.172   0.000   14.6    68    8.8   14.1    0.00   695    1    100.0   30 
21/02/24  00.00    9.0   10.2    8.9    82    6.1   1.6   NNE   0.80   4.8   NNE    9.0    8.9    8.9    7.1  1025.4  0.00   0.0     0     0.00      0     0.0  0.00   0.0   0.194   0.000   14.5    67    8.4   14.0    0.00   699    1    100.0   30 
21/02/24   0.30    8.3    9.0    8.3    82    5.4   1.6   NNE   0.80   4.8    NE    8.3    8.3    8.3    6.3  1025.6  0.00   0.0     0     0.00      0     0.0  0.00   0.0   0.208   0.000   14.4    66    8.2   13.9    0.00   699    1    100.0   30 
21/02/24   1.00    7.6    8.3    7.5    82    4.7   1.6   NNE   0.80   4.8   NNE    7.6    7.5    7.5    5.6  1025.5  0.00   0.0     0     0.00      0     0.0  0.00   0.0   0.225   0.000   14.4    65    7.9   13.8    0.00   692    1    100.0   30 
21/02/24   1.30    7.6    7.6    7.3    83    4.9   3.2   NNE   1.61   6.4   NNE    7.6    7.5    7.5    5.6  1025.5  0.00   0.0     0     0.00      0     0.0  0.00   0.0   0.225   0.000   14.2    64    7.5   13.6    0.00   701    1    100.0   30 
21/02/24   2.00    7.7    7.8    7.6    81    4.6   4.8   NNE   2.41   8.0   NNE    7.2    7.6    7.1    5.2  1025.1  0.00   0.0     0     0.00      0     0.0  0.00   0.0   0.222   0.000   14.2    63    7.2   13.6    0.00   695    1    100.0   30 
21/02/24   2.30    7.8    7.8    7.5    81    4.7   4.8   NNE   2.41   9.7   NNE    7.3    7.7    7.2    5.3  1025.0  0.00   0.0     0     0.00      0     0.0  0.00   0.0   0.220   0.000   14.1    62    6.9   13.4    0.00   697    1    100.0   30 
21/02/24   3.00    7.4    7.8    7.3    79    4.0   4.8   NNE   2.41   6.4   NNE    6.9    7.3    6.8    4.8  1024.9  0.00   0.0     0     0.00      0     0.0  0.00   0.0   0.227   0.000   14.1    61    6.6   13.4    0.00   702    1    100.0   30 
21/02/24   3.30    6.8    7.4    6.5    80    3.6   4.8   NNE   2.41   8.0    NE    6.2    6.7    6.1    4.1  1024.9  0.00   0.0     0     0.00      0     0.0  0.00   0.0   0.241   0.000   13.9    60    6.3   13.2    0.00   685    1    100.0   30 
21/02/24   4.00    7.4    7.4    6.8    78    3.9   4.8    NE   2.41   9.7    NE    6.9    7.3    6.8    4.8  1025.1  0.00   0.0     0     0.00      0     0.0  0.00   0.0   0.227   0.000   13.9    60    6.3   13.2    0.00   701    1    100.0   30 
21/02/24   4.30    7.4    8.2    7.3    75    3.2   6.4   NNE   3.22   9.7    NE    6.3    7.2    6.1    4.1  1024.9  0.00   0.0     0     0.00      0     0.0  0.00   0.0   0.228   0.000   13.8    59    6.0   13.1    0.00   700    1    100.0   30 
21/02/24   5.00    7.9    7.9    6.8    75    3.7   8.0   NNE   4.02  12.9   NNE    6.5    7.7    6.3    4.3  1025.0  0.00   0.0     0     0.00      0     0.0  0.00   0.0   0.218   0.000   13.8    58    5.7   13.0    0.00   691    1    100.0   30 
21/02/24   5.30    7.3    7.9    7.2    76    3.4   6.4    NE   3.22  12.9   NNE    6.3    7.1    6.1    4.1  1025.2  0.00   0.0     0     0.00      0     0.0  0.00   0.0   0.229   0.000   13.7    58    5.6   12.9    0.00   703    1    100.0   30 
21/02/24   6.00    6.5    7.4    6.5    78    2.9   6.4   NNE   3.22   9.7    NE    5.3    6.3    5.2    3.2  1025.3  0.00   0.0     0     0.00      0     0.0  0.00   0.0   0.247   0.000   13.7    58    5.5   12.9    0.00   691    1    100.0   30 
21/02/24   6.30    6.1    6.6    6.1    79    2.7   8.0   NNE   4.02  12.9   NNE    4.4    5.9    4.2    2.2  1025.4  0.00   0.0     0     0.00      0     0.0  0.00   0.0   0.256   0.000   13.6    58    5.5   12.8    0.00   696    1    100.0   30 
21/02/24   7.00    6.5    6.7    5.9    79    3.1   1.6   NNE   0.80   8.0   NNE    6.5    6.3    6.3    4.3  1025.5  0.00   0.0     0     0.00      0     0.0  0.00   0.0   0.247   0.000   13.6    58    5.4   12.8    0.00   701    1    100.0   30 
21/02/24   7.30    6.8    6.8    6.4    79    3.4   1.6   NNE   0.80   6.4   NNE    6.8    6.7    6.7    4.8  1025.7  0.00   0.0     7     0.30     14     0.0  0.00   0.0   0.240   0.000   13.6    58    5.4   12.8    0.00   690    1    100.0   30 
21/02/24   8.00    7.3    7.4    6.7    78    3.7   0.0   NNE   0.00   4.8   NNE    7.3    7.1    7.1    5.7  1026.0  0.00   0.0    51     2.19     90     0.0  0.00   0.0   0.230   0.000   13.5    58    5.4   12.7    0.00   698    1    100.0   30 
21/02/24   8.30    8.7    8.7    7.2    77    4.9   3.2   NNE   1.61   8.0   NNE    8.7    8.6    8.6   10.1  1026.1  0.00   0.0   142     6.11    192     0.0  0.00   0.0   0.200   0.000   13.5    58    5.4   12.7    0.00   697    1    100.0   30 
21/02/24   9.00   11.4   11.4    8.7    73    6.8   3.2   NNE   1.61   6.4    NE   11.4   11.2   11.2   14.8  1026.2  0.00   0.0   248    10.67    350     0.0  0.00   0.0   0.144   0.000   13.6    59    5.7   12.8    0.08   697    1    100.0   30 
21/02/24   9.30   14.3   14.3   11.4    68    8.4   0.0   NNE   0.00   4.8   NNE   14.3   13.8   13.8   18.7  1026.2  0.00   0.0   329    14.15    364     0.0  0.00   0.0   0.084   0.000   13.7    61    6.3   13.0    0.00   696    1    100.0   30 
21/02/24  10.00   16.1   16.1   14.3    55    7.0   0.0   NNE   0.00   6.4   NNE   16.1   15.2   15.2   20.7  1026.3  0.00   0.0   399    17.16    431     0.0  0.00   0.0   0.047   0.000   13.8    62    6.7   13.2    0.18   696    1    100.0   30 
21/02/24  10.30   16.9   17.3   16.1    60    9.1   0.0     S   0.00   8.0     S   16.9   16.3   16.3   22.4  1026.3  0.00   0.0   458    19.70    490     0.0  0.00   0.0   0.029   0.000   14.1    62    6.9   13.4    0.00   702    1    100.0   30 
21/02/24  11.00   17.3   17.3   16.7    55    8.2   0.0     S   0.00   4.8     S   17.3   16.6   16.6   22.9  1026.5  0.00   0.0   510    21.93    531     0.0  0.00   0.0   0.021   0.000   14.2    63    7.2   13.6    0.28   695    1    100.0   30 
21/02/24  11.30   17.6   17.8   17.3    53    7.9   0.0     S   0.00   1.6     S   17.6   16.7   16.7   23.4  1026.5  0.00   0.0   547    23.52    573     0.0  0.00   0.0   0.016   0.000   14.3    65    7.8   13.8    0.00   696    1    100.0   30 
21/02/24  12.00   17.4   17.9   17.4    51    7.2   0.0   ENE   0.00   8.0   ENE   17.4   16.4   16.4   23.3  1026.2  0.00   0.0   565    24.30    592     0.0  0.00   0.0   0.019   0.000   14.5    65    8.0   13.9    0.33   697    1    100.0   30 
21/02/24  12.30   17.8   18.2   17.4    50    7.2   1.6    NE   0.80   8.0   NNE   17.8   16.8   16.8   23.9  1025.8  0.00   0.0   581    24.99    605     0.0  0.00   0.0   0.012   0.000   14.7    65    8.2   14.1    0.00   698    1    100.0   30 
21/02/24  13.00   17.7   17.9   17.4    49    6.9   3.2   ENE   1.61   9.7   ENE   17.7   16.7   16.7   24.1  1025.6  0.00   0.0   582    25.03    601     0.0  0.00   0.0   0.013   0.000   14.9    64    8.2   14.3    0.36   698    1    100.0   30 
21/02/24  13.30   18.1   18.6   17.6    50    7.5   1.6     N   0.80   8.0     N   18.1   17.2   17.2   24.8  1025.3  0.00   0.0   566    24.34    592     0.0  0.00   0.0   0.005   0.000   15.2    64    8.5   14.7    0.00   695    1    100.0   30 
21/02/24  14.00   17.9   18.2   17.9    46    6.1   3.2    NE   1.61   9.7    NE   17.9   16.8   16.8   24.6  1024.7  0.00   0.0   537    23.09    584     0.0  0.00   0.0   0.008   0.000   15.6    63    8.5   14.9    0.36   697    1    100.0   30 
21/02/24  14.30   17.6   18.0   17.6    49    6.8   4.8   NNE   2.41  12.9   NNE   17.6   16.6   16.6   24.4  1024.5  0.00   0.0   491    21.12    554     0.0  0.00   0.0   0.015   0.000   15.9    62    8.6   15.3    0.00   699    1    100.0   30 
21/02/24  15.00   17.2   17.6   17.1    55    8.1   6.4   NNE   3.22  14.5    NE   17.2   16.4   16.4   24.7  1024.4  0.00   0.0   462    19.87    499     0.0  0.00   0.0   0.023   0.000   16.2    61    8.6   15.6    0.30   698    1    100.0   30 
21/02/24  15.30   17.2   17.3   17.0    51    7.0   8.0     N   4.02  16.1     N   17.2   16.2   16.2   23.8  1023.9  0.00   0.0   395    16.99    432     0.0  0.00   0.0   0.023   0.000   16.3    59    8.3   15.6    0.00   695    1    100.0   30 
21/02/24  16.00   17.3   17.3   17.1    51    7.1   8.0     N   4.02  14.5     N   17.3   16.3   16.3   18.2  1023.6  0.00   0.0   315    13.55    360     0.0  0.00   0.0   0.021   0.000   16.2    58    7.9   15.4    0.25   693    1    100.0   30 
21/02/24  16.30   16.7   17.4   16.7    51    6.5   6.4   NNE   3.22  12.9   NNE   16.7   15.7   15.7   16.5  1023.4  0.00   0.0   225     9.68    260     0.0  0.00   0.0   0.034   0.000   15.9    58    7.6   15.1    0.00   702    1    100.0   30 
21/02/24  17.00   16.8   16.8   16.7    48    5.7   3.2   NNE   1.61  11.3     N   16.8   15.6   15.6   15.4  1023.3  0.00   0.0   147     6.32    190     0.0  0.00   0.0   0.032   0.000   15.6    59    7.6   14.8    0.13   696    1    100.0   30 
21/02/24  17.30   15.8   16.8   15.8    60    8.1   0.0   NNE   0.00   6.4     N   15.8   15.2   15.2   14.1  1023.3  0.00   0.0    60     2.58     98     0.0  0.00   0.0   0.052   0.000   15.4    61    8.0   14.8    0.00   696    1    100.0   30 
21/02/24  18.00   13.7   15.8   13.7    66    7.4   0.0   ---   0.00   0.0   ---   13.7   13.1   13.1   11.4  1023.3  0.00   0.0    13     0.56     26     0.0  0.00   0.0   0.097   0.000   15.3    62    8.0   14.6    0.03   698    1    100.0   30 
21/02/24  18.30   11.9   13.7   11.9    69    6.4   0.0   ---   0.00   0.0   ---   11.9   11.5   11.5    9.6  1023.4  0.00   0.0     0     0.00      0     0.0  0.00   0.0   0.133   0.000   15.1    61    7.6   14.4    0.00   698    1    100.0   30 
21/02/24  19.00   11.1   11.9   11.1    70    5.8   0.0   ---   0.00   0.0   ---   11.1   10.7   10.7    8.8  1023.5  0.00   0.0     0     0.00      0     0.0  0.00   0.0   0.152   0.000   14.9    61    7.5   14.3    0.00   696    1    100.0   30 
21/02/24  19.30   10.3   11.1   10.3    71    5.3   0.0   ---   0.00   0.0   ---   10.3   10.1   10.1    8.2  1023.5  0.00   0.0     0     0.00      0     0.0  0.00   0.0   0.167   0.000   14.8    60    7.1   14.1    0.00   700    1    100.0   30 
21/02/24  20.00    9.9   10.3    9.9    71    4.9   0.0   ---   0.00   0.0   ---    9.9    9.7    9.7    7.7  1023.5  0.00   0.0     0     0.00      0     0.0  0.00   0.0   0.176   0.000   14.7    60    7.0   13.9    0.00   697    1    100.0   30 
21/02/24  20.30    8.8    9.9    8.8    74    4.4   0.0   ---   0.00   0.0   ---    8.8    8.6    8.6    6.6  1023.5  0.00   0.0     0     0.00      0     0.0  0.00   0.0   0.199   0.000   14.6    60    6.9   13.8    0.00   696    1    100.0   30 
21/02/24  21.00    7.9    8.8    7.9    77    4.2   0.0   ---   0.00   0.0   ---    7.9    7.8    7.8    5.8  1023.5  0.00   0.0     0     0.00      0     0.0  0.00   0.0   0.216   0.000   14.5    59    6.6   13.7    0.00   701    1    100.0   30 
21/02/24  21.30    7.3    7.9    7.3    79    3.9   0.0   ---   0.00   0.0   ---    7.3    7.2    7.2    5.2  1023.3  0.00   0.0     0     0.00      0     0.0  0.00   0.0   0.230   0.000   14.3    59    6.4   13.6    0.00   689    1    100.0   30 
21/02/24  22.00    7.1    7.3    7.1    79    3.7   0.0   ---   0.00   0.0   ---    7.1    6.9    6.9    4.9  1023.1  0.00   0.0     0     0.00      0     0.0  0.00   0.0   0.235   0.000   14.2    58    6.1   13.4    0.00   702    1    100.0   30 
21/02/24  22.30    6.8    7.1    6.8    80    3.6   0.0   ---   0.00   0.0   ---    6.8    6.7    6.7    4.7  1023.0  0.00   0.0     0     0.00      0     0.0  0.00   0.0   0.241   0.000   14.2    58    6.0   13.4    0.00   696    1    100.0   30 
21/02/24  23.00    6.4    6.8    6.3    81    3.4   0.0   ---   0.00   0.0   ---    6.4    6.3    6.3    4.3  1022.9  0.00   0.0     0     0.00      0     0.0  0.00   0.0   0.248   0.000   14.1    58    5.9   13.3    0.00   694    1    100.0   30 
21/02/24  23.30    6.6    6.6    6.2    81    3.5   0.0   ---   0.00   0.0   ---    6.6    6.4    6.4    4.4  1022.7  0.00   0.0     0     0.00      0     0.0  0.00   0.0   0.245   0.000   13.9    57    5.6   13.1    0.00   702    1    100.0   30 
22/02/24  00.00    6.3    6.7    6.2    82    3.4   0.0   ---   0.00   0.0   ---    6.3    6.2    6.2    4.2  1022.7  0.00   0.0     0     0.00      0     0.0  0.00   0.0   0.251   0.000   13.9    57    5.6   13.1    0.00   696    1    100.0   30 
22/02/24   0.30    6.3    6.3    6.1    82    3.4   0.0   ---   0.00   0.0   ---    6.3    6.2    6.2    4.2  1022.6  0.00   0.0     0     0.00      0     0.0  0.00   0.0   0.251   0.000   13.8    57    5.5   13.0    0.00   689    1    100.0   30 
22/02/24   1.00    5.8    6.3    5.7    82    2.9   0.0   ---   0.00   0.0   ---    5.8    5.7    5.7    3.7  1022.2  0.00   0.0     0     0.00      0     0.0  0.00   0.0   0.262   0.000   13.8    56    5.1   12.9    0.00   702    1    100.0   30 
22/02/24   1.30    5.5    5.9    5.5    82    2.7   0.0   ---   0.00   0.0   ---    5.5    5.3    5.3    3.3  1021.9  0.00   0.0     0     0.00      0     0.0  0.00   0.0   0.267   0.000   13.7    56    5.0   12.8    0.00   697    1    100.0   30 
22/02/24   2.00    5.4    5.8    5.4    83    2.8   0.0   ---   0.00   0.0   ---    5.4    5.3    5.3    3.3  1021.5  0.00   0.0     0     0.00      0     0.0  0.00   0.0   0.269   0.000   13.6    56    5.0   12.8    0.00   691    1    100.0   30 
22/02/24   2.30    6.1    6.3    5.4    83    3.4   0.0   ---   0.00   0.0   ---    6.1    5.9    5.9    3.9  1021.1  0.00   0.0     0     0.00      0     0.0  0.00   0.0   0.256   0.000   13.5    56    4.9   12.7    0.00   701    1    100.0   30 
22/02/24   3.00    6.4    6.7    5.9    84    3.9   0.0   ---   0.00   0.0   ---    6.4    6.4    6.4    4.4  1020.5  0.00   0.0     0     0.00      0     0.0  0.00   0.0   0.248   0.000   13.5    56    4.9   12.7    0.00   701    1    100.0   30 
22/02/24   3.30    5.4    6.8    5.4    83    2.8   0.0   ---   0.00   0.0   ---    5.4    5.3    5.3    3.3  1020.1  0.00   0.0     0     0.00      0     0.0  0.00   0.0   0.269   0.000   13.4    56    4.8   12.6    0.00   691    1    100.0   30 
22/02/24   4.00    6.7    7.1    5.4    84    4.2   0.0   ---   0.00   0.0   ---    6.7    6.7    6.7    4.7  1020.2  0.00   0.0     0     0.00      0     0.0  0.00   0.0   0.242   0.000   13.4    56    4.8   12.6    0.00   701    1    100.0   30 
22/02/24   4.30    7.1    7.1    6.2    85    4.7   0.0   ---   0.00   0.0   ---    7.1    7.0    7.0    5.1  1019.9  0.00   0.0     0     0.00      0     0.0  0.00   0.0   0.235   0.000   13.4    57    5.0   12.6    0.00   700    1    100.0   30 
22/02/24   5.00    6.6    7.1    6.5    84    4.1   0.0   ---   0.00   0.0   ---    6.6    6.6    6.6    4.6  1019.7  0.00   0.0     0     0.00      0     0.0  0.00   0.0   0.244   0.000   13.3    57    5.0   12.5    0.00   692    1    100.0   30 
22/02/24   5.30    7.1    7.4    6.6    83    4.4   0.0   ---   0.00   0.0   ---    7.1    7.0    7.0    5.0  1019.4  0.00   0.0     0     0.00      0     0.0  0.00   0.0   0.235   0.000   13.3    58    5.2   12.5    0.00   700    1    100.0   30 
22/02/24   6.00    8.8    8.8    7.1    83    6.1   0.0   ---   0.00   0.0   ---    8.8    8.8    8.8    6.9  1019.2  0.00   0.0     0     0.00      0     0.0  0.00   0.0   0.198   0.000   13.3    59    5.5   12.6    0.00   692    1    100.0   30 
22/02/24   6.30   11.1   11.1    8.8    83    8.3   0.0   ---   0.00   0.0   ---   11.1   11.0   11.0    9.2  1018.7  0.00   0.0     0     0.00      0     0.0  0.00   0.0   0.152   0.000   13.3    60    5.7   12.6    0.00   698    1    100.0   30 
22/02/24   7.00   11.0   11.3   10.6    83    8.2   0.0   ---   0.00   0.0   ---   11.0   10.9   10.9    9.2  1018.6  0.00   0.0     0     0.00      0     0.0  0.00   0.0   0.153   0.000   13.4    61    6.0   12.7    0.00   695    1    100.0   30 
22/02/24   7.30   11.1   11.4   10.8    83    8.3   0.0   WNW   0.00   6.4   WNW   11.1   11.1   11.1    9.3  1018.5  0.00   0.0     3     0.13      7     0.0  0.00   0.0   0.150   0.000   13.4    63    6.5   12.8    0.00   697    1    100.0   30 
22/02/24   8.00   11.9   11.9   11.1    83    9.1   0.0   WNW   0.00   4.8   WNW   11.9   11.8   11.8   10.4  1018.6  0.00   0.0    25     1.08     49     0.0  0.00   0.0   0.133   0.000   13.4    63    6.5   12.8    0.00   694    1    100.0   30 
22/02/24   8.30   12.7   12.7   11.9    83    9.9   0.0    NW   0.00   3.2   WNW   12.7   12.6   12.6   13.2  1018.3  0.00   0.0    67     2.88    107     0.0  0.00   0.0   0.118   0.000   13.5    64    6.8   12.9    0.00   698    1    100.0   30 
22/02/24   9.00   13.5   13.5   12.7    83   10.7   1.6    NW   0.80  12.9   NNE   13.5   13.4   13.4   14.6  1017.8  0.00   0.0    95     4.09    141     0.0  0.00   0.0   0.101   0.000   13.6    65    7.1   13.0    0.05   695    1    100.0   30 
22/02/24   9.30   14.3   14.3   13.6    81   11.1   0.0   ESE   0.00   6.4   ESE   14.3   14.2   14.2   16.7  1017.6  0.00   0.0   161     6.92    186     0.0  0.00   0.0   0.083   0.000   13.7    65    7.3   13.2    0.00   698    1    100.0   30 
22/02/24  10.00   15.1   15.1   14.3    79   11.4   1.6   SSE   0.80  12.9   SSE   15.1   14.9   14.9   18.3  1016.7  0.00   0.0   222     9.55    332     0.0  0.00   0.0   0.068   0.000   13.8    65    7.3   13.2    0.10   695    1    100.0   30 
22/02/24  10.30   15.6   15.7   15.0    75   11.1   1.6   SSE   0.80  11.3    SE   15.6   15.3   15.3   20.1  1016.5  0.00   0.0   337    14.49    568     0.0  0.00   0.0   0.058   0.000   13.9    66    7.7   13.4    0.00   694    1    100.0   30 
22/02/24  11.00   15.4   15.7   15.4    75   11.0   3.2     S   1.61  12.9     S   15.4   15.2   15.2   19.5  1016.7  0.00   0.0   308    13.25    369     0.0  0.00   0.0   0.061   0.000   14.1    66    7.8   13.5    0.20   698    1    100.0   30 
22/02/24  11.30   15.4   15.4   15.2    76   11.2   1.6     S   0.80  14.5     S   15.4   15.2   15.2   17.9  1017.0  0.00   0.0   208     8.95    267     0.0  0.00   0.0   0.061   0.000   14.1    67    8.0   13.6    0.00   700    1    100.0   30 
22/02/24  12.00   15.3   15.4   15.3    78   11.5   0.0     S   0.00   4.8   SSE   15.3   15.2   15.2   18.3  1016.9  0.00   0.0   232     9.98    271     0.0  0.00   0.0   0.063   0.000   14.1    68    8.3   13.6    0.13   695    1    100.0   30 
22/02/24  12.30   15.6   15.6   15.3    78   11.7   1.6   SSE   0.80   8.0   SSE   15.6   15.4   15.4   18.9  1016.8  0.00   0.0   255    10.97    271     0.0  0.00   0.0   0.058   0.000   14.2    68    8.3   13.7    0.00   696    1    100.0   30 
22/02/24  13.00   15.3   15.6   15.3    80   11.9   1.6     S   0.80   8.0     S   15.3   15.3   15.3   17.7  1016.3  0.00   0.0   186     8.00    236     0.0  0.00   0.0   0.063   0.000   14.2    69    8.6   13.7    0.13   698    1    100.0   30 
22/02/24  13.30   15.3   15.4   15.2    80   11.9   0.0   SSE   0.00   8.0     S   15.3   15.3   15.3   17.9  1015.3  0.00   0.0   194     8.34    237     0.0  0.00   0.0   0.063   0.000   14.2    69    8.6   13.7    0.00   696    1    100.0   30 
22/02/24  14.00   15.1   15.4   15.0    81   11.8   3.2     S   1.61  16.1     S   15.1   14.9   14.9   17.4  1014.9  0.00   0.0   173     7.44    214     0.0  0.00   0.0   0.068   0.000   14.2    70    8.8   13.8    0.13   694    1    100.0   30 
22/02/24  14.30   14.9   15.1   14.9    79   11.3   4.8     S   2.41  14.5     S   14.9   14.7   14.7   17.7  1014.5  0.00   0.0   192     8.26    229     0.0  0.00   0.0   0.072   0.000   14.3    70    8.9   13.8    0.00   701    1    100.0   30 
22/02/24  15.00   15.1   15.1   14.8    76   10.9   3.2     S   1.61  14.5   SSE   15.1   14.9   14.9   17.2  1013.7  0.00   0.0   150     6.45    165     0.0  0.00   0.0   0.067   0.000   14.3    70    8.9   13.8    0.13   694    1    100.0   30 
22/02/24  15.30   15.5   15.5   15.1    76   11.3   8.0   SSW   4.02  25.7     S   15.5   15.3   15.3   17.3  1013.3  0.00   0.0   133     5.72    162     0.0  0.00   0.0   0.059   0.000   14.3    70    8.9   13.9    0.00   697    1    100.0   30 
22/02/24  16.00   15.6   15.7   15.5    74   10.9  11.3     S   5.63  32.2     S   15.1   15.3   14.9   15.4  1012.6  0.00   0.0   171     7.35    197     0.0  0.00   0.0   0.058   0.000   14.3    71    9.1   13.9    0.13   698    1    100.0   30 
22/02/24  16.30   15.6   15.6   15.5    71   10.4  12.9   SSW   6.44  33.8    SW   14.8   15.3   14.4   14.4  1012.7  0.00   0.0   128     5.50    176     0.0  0.00   0.0   0.057   0.000   14.3    71    9.1   13.9    0.00   695    1    100.0   30 
22/02/24  17.00   15.4   15.7   15.4    74   10.8  14.5   SSW   7.24  35.4   SSW   14.1   15.1   13.8   13.1  1012.4  0.00   0.0    70     3.01    114     0.0  0.00   0.0   0.061   0.000   14.3    71    9.1   13.9    0.10   699    1    100.0   30 
22/02/24  17.30   15.1   15.4   15.1    77   11.1  14.5     S   7.24  38.6   SSE   13.7   14.9   13.5   12.3  1012.2  0.00   0.0    26     1.12     39     0.0  0.00   0.0   0.067   0.000   14.3    71    9.1   13.9    0.00   694    1    100.0   30 
22/02/24  18.00   15.2   15.3   15.0    78   11.4  12.9   SSW   6.44  30.6     S   14.3   15.0   14.1   12.7  1011.8  0.00   0.0     4     0.17     11     0.0  0.00   0.0   0.066   0.000   14.3    72    9.3   13.9    0.05   695    1    100.0   30 
22/02/24  18.30   14.8   15.2   14.8    80   11.4  12.9     S   6.44  30.6   SSW   13.8   14.7   13.7   12.2  1011.6  0.00   0.0     0     0.00      0     0.0  0.00   0.0   0.073   0.000   14.3    72    9.3   13.9    0.00   698    1    100.0   30 
22/02/24  19.00   14.8   14.9   14.7    77   10.8  11.3     S   5.63  25.7   SSE   14.2   14.6   14.0   12.4  1011.4  0.00   0.0     0     0.00      0     0.0  0.00   0.0   0.073   0.000   14.3    72    9.3   13.9    0.03   697    1    100.0   30 
22/02/24  19.30   14.9   14.9   14.8    75   10.5   9.7     S   4.83  25.7     S   14.6   14.6   14.3   12.7  1010.7  0.00   0.0     0     0.00      0     0.0  0.00   0.0   0.072   0.000   14.3    72    9.3   13.9    0.00   695    1    100.0   30 
22/02/24  20.00   14.8   15.1   14.8    79   11.2   9.7     S   4.83  27.4   SSE   14.4   14.7   14.3   12.7  1010.4  0.00   0.0     0     0.00      0     0.0  0.00   0.0   0.073   0.000   14.3    72    9.3   13.9    0.03   703    1    100.0   30 
22/02/24  20.30   14.8   14.9   14.8    79   11.2   9.7     S   4.83  25.7     S   14.4   14.7   14.3   12.7  1010.1  0.00   0.0     0     0.00      0     0.0  0.00   0.0   0.073   0.000   14.3    73    9.6   14.0    0.00   695    1    100.0   30 
22/02/24  21.00   14.9   14.9   14.8    78   11.1  11.3     S   5.63  30.6   SSE   14.4   14.8   14.2   12.7  1009.6  0.00   0.0     0     0.00      0     0.0  0.00   0.0   0.071   0.000   14.3    73    9.5   13.9    0.03   697    1    100.0   30 
22/02/24  21.30   15.1   15.1   14.9    78   11.2  12.9   SSW   6.44  29.0   SSW   14.1   14.9   13.9   12.4  1009.3  0.00   0.0     0     0.00      0     0.0  0.00   0.0   0.068   0.000   14.3    73    9.6   14.0    0.00   700    1    100.0   30 
22/02/24  22.00   15.1   15.2   15.1    78   11.2  11.3   SSW   5.63  25.7   SSE   14.5   14.9   14.3   12.8  1009.0  0.00   0.0     0     0.00      0     0.0  0.00   0.0   0.068   0.000   14.3    73    9.6   14.0    0.03   694    1    100.0   30 
22/02/24  22.30   15.3   15.3   15.1    80   11.8  12.9   SSW   6.44  33.8   SSE   14.4   15.2   14.3   12.9  1008.4  0.00   0.0     0     0.00      0     0.0  0.00   0.0   0.064   0.000   14.3    74    9.8   14.0    0.00   701    1    100.0   30 
22/02/24  23.00   15.3   15.4   15.3    81   12.1  12.9   SSW   6.44  32.2     S   14.4   15.3   14.4   12.9  1007.8  0.00   0.0     0     0.00      0     0.0  0.00   0.0   0.063   0.000   14.4    74    9.8   14.1    0.03   696    1    100.0   30 
22/02/24  23.30   15.4   15.4   15.3    80   12.0  14.5   SSW   7.24  33.8     S   14.1   15.3   14.0   12.6  1007.2  0.00   0.0     0     0.00      0     0.0  0.00   0.0   0.061   0.000   14.4    74    9.8   14.1    0.00   693    1    100.0   30 
23/02/24  00.00   15.4   15.5   15.4    78   11.6  16.1   SSW   8.05  38.6   SSE   13.8   15.3   13.7   12.3  1006.6  0.00   0.0     0     0.00      0     0.0  0.00   0.0   0.060   0.000   14.4    75   10.0   14.1    0.03   701    1    100.0   30 
23/02/24   0.30   15.5   15.6   15.4    80   12.1  12.9   SSW   6.44  32.2   SSW   14.7   15.4   14.6   13.2  1005.7  0.00   0.0     0     0.00      0     0.0  0.00   0.0   0.059   0.000   14.4    75   10.0   14.1    0.00   693    1    100.0   30 
23/02/24   1.00   15.4   15.5   15.4    79   11.8  12.9     S   6.44  27.4   SSE   14.6   15.3   14.5   13.1  1005.2  0.00   0.0     0     0.00      0     0.0  0.00   0.0   0.060   0.000   14.4    75   10.0   14.1    0.03   695    1    100.0   30 
23/02/24   1.30   15.4   15.4   15.4    76   11.2  16.1     S   8.05  43.5    SE   13.8   15.2   13.6   12.2  1004.6  0.00   0.0     0     0.00      0     0.0  0.00   0.0   0.060   0.000   14.4    75   10.0   14.1    0.00   699    1    100.0   30 
23/02/24   2.00   15.4   15.4   15.3    74   10.8  19.3   SSW   9.66  38.6     S   13.0   15.1   12.7   11.4  1004.2  0.00   0.0     0     0.00      0     0.0  0.00   0.0   0.061   0.000   14.4    75   10.1   14.2    0.05   693    1    100.0   30 
23/02/24   2.30   15.7   15.8   15.3    75   11.2  16.1   SSW   8.05  40.2     S   14.0   15.4   13.8   12.4  1003.8  0.00   0.0     0     0.00      0     0.0  0.00   0.0   0.056   0.000   14.4    75   10.1   14.2    0.00   697    1    100.0   30 
23/02/24   3.00   15.3   15.7   15.1    73   10.5  14.5     S   7.24  40.2     S   14.0   15.1   13.7   12.3  1003.3  0.00   0.0     0     0.00      0     0.0  0.00   0.0   0.063   0.000   14.4    75   10.1   14.2    0.05   697    1    100.0   30 
23/02/24   3.30   15.6   15.7   15.3    71   10.3  16.1   SSW   8.05  45.1   SSE   13.9   15.2   13.6   12.1  1002.6  0.00   0.0     0     0.00      0     0.0  0.00   0.0   0.058   0.000   14.4    75   10.1   14.2    0.00   690    1    100.0   30 
23/02/24   4.00   15.3   15.6   15.3    76   11.1  17.7   SSW   8.85  38.6     S   13.3   15.1   13.1   11.7  1002.4  0.00   0.0     0     0.00      0     0.0  0.00   0.0   0.063   0.000   14.4    75   10.1   14.2    0.05   701    1    100.0   30 
23/02/24   4.30   15.4   15.4   15.3    76   11.2  16.1     S   8.05  40.2     S   13.7   15.2   13.4   12.1  1002.0  0.00   0.0     0     0.00      0     0.0  0.00   0.0   0.061   0.000   14.4    75   10.1   14.2    0.00   694    1    100.0   30 
23/02/24   5.00   15.4   15.5   15.4    76   11.2  14.5     S   7.24  35.4     S   14.2   15.2   13.9   12.5  1001.4  0.00   0.0     0     0.00      0     0.0  0.00   0.0   0.060   0.000   14.5    75   10.1   14.2    0.03   694    1    100.0   30 
23/02/24   5.30   15.6   15.6   15.4    75   11.1  16.1     S   8.05  40.2     S   13.9   15.3   13.7   12.3  1001.1  0.00   0.0     0     0.00      0     0.0  0.00   0.0   0.058   0.000   14.4    75   10.1   14.2    0.00   701    1    100.0   30 
23/02/24   6.00   15.8   15.9   15.6    72   10.8  16.1   SSW   8.05  38.6     S   14.2   15.6   13.9   12.6  1000.9  0.00   0.0     0     0.00      0     0.0  0.00   0.0   0.052   0.000   14.5    75   10.1   14.2    0.03   694    1    100.0   30 
23/02/24   6.30   16.1   16.1   15.8    70   10.6  19.3   SSW   9.66  40.2    SE   13.8   15.7   13.4   12.2  1000.6  0.00   0.0     0     0.00      0     0.0  0.00   0.0   0.047   0.000   14.5    75   10.1   14.2    0.00   697    1    100.0   30 
23/02/24   7.00   16.3   16.3   16.1    69   10.6  20.9   SSW  10.46  49.9   SSE   13.8   16.0   13.5   12.3  1000.6  0.00   0.0     0     0.00      0     0.0  0.00   0.0   0.042   0.000   14.6    75   10.2   14.3    0.05   701    1    100.0   30 
23/02/24   7.30   16.3   16.4   16.3    70   10.8  16.1     S   8.05  40.2   SSW   14.8   16.0   14.4   13.1  1000.7  0.00   0.0     0     0.00      0     0.0  0.00   0.0   0.042   0.000   14.6    75   10.2   14.3    0.00   695    1    100.0   30 
23/02/24   8.00   15.9   16.3   15.8    77   11.9   8.0     S   4.02  24.1     S   15.9   15.8   15.8   14.3  1000.8  0.00   0.0     2     0.09     11     0.0  0.00   0.0   0.051   0.000   14.5    75   10.1   14.2    0.03   697    1    100.0   30 
23/02/24   8.30   15.7   15.9   15.7    79   12.1   9.7     S   4.83  25.7   SSE   15.6   15.7   15.5   14.7  1000.9  0.00   0.0    11     0.47     14     0.0  0.00   0.0   0.054   0.000   14.6    75   10.2   14.3    0.00   700    1    100.0   30 
23/02/24   9.00   15.6   15.8   15.5    80   12.2  11.3     S   5.63  29.0     S   15.2   15.6   15.1   14.3  1000.8  0.00   0.0    12     0.52     14     0.0  0.00   0.0   0.057   0.000   14.6    75   10.2   14.3    0.03   691    1    100.0   30 
23/02/24   9.30   15.9   15.9   15.4    74   11.3  11.3     S   5.63  32.2     S   15.5   15.7   15.3   14.6  1000.4  0.00   0.0    18     0.77     33     0.0  0.00   0.0   0.051   0.000   14.6    75   10.2   14.3    0.00   699    1    100.0   30 
23/02/24  10.00   16.1   16.2   15.9    76   11.8  11.3     S   5.63  30.6   SSE   15.7   15.9   15.6   15.3  1000.2  0.00   0.0    37     1.59     58     0.0  0.00   0.0   0.047   0.000   14.6    75   10.2   14.3    0.05   697    1    100.0   30 
23/02/24  10.30   15.9   16.1   15.9    79   12.3   9.7     S   4.83  32.2   SSE   15.8   15.9   15.7   16.3   999.9  0.00   0.0    77     3.31    118     0.0  0.00   0.0   0.050   0.000   14.6    75   10.2   14.3    0.00   696    1    100.0   30 
23/02/24  11.00   16.1   16.1   15.8    74   11.5  11.3     S   5.63  29.0     S   15.8   15.9   15.6   15.4  1000.2  0.00   0.0    49     2.11    118     0.0  0.00   0.0   0.046   0.000   14.7    76   10.5   14.4    0.08   701    1    100.0   30 
23/02/24  11.30   15.8   16.4   15.8    79   12.2  12.9     S   6.44  37.0     S   15.1   15.8   15.0   14.5  1000.0  0.00   0.0    32     1.38     60     0.0  0.00   0.0   0.052   0.000   14.7    76   10.5   14.4    0.00   695    1    100.0   30 
23/02/24  12.00   16.0   16.0   15.6    76   11.8  12.9     S   6.44  41.8   SSE   15.3   15.8   15.1   15.0   999.7  0.00   0.0    51     2.19     76     0.0  0.00   0.0   0.049   0.000   14.7    76   10.5   14.4    0.08   694    1    100.0   30 
23/02/24  12.30   15.7   16.1   15.6    79   12.0  16.1     S   8.05  38.6     S   14.0   15.6   13.9   13.7   999.8  0.00   0.0    44     1.89    105     0.0  0.00   0.0   0.056   0.000   14.7    76   10.5   14.4    0.00   702    1    100.0   30 
23/02/24  13.00   15.7   15.8   15.7    79   12.1  14.5     S   7.24  33.8   SSE   14.5   15.7   14.4   14.8   999.5  0.00   0.0    75     3.23    128     0.0  0.00   0.0   0.054   0.000   14.7    76   10.5   14.4    0.08   690    1    100.0   30 
23/02/24  13.30   15.3   15.7   15.3    80   11.9   9.7   SSW   4.83  33.8   SSW   15.1   15.3   15.0   14.6   999.3  0.00   0.0    33     1.42     49     0.0  0.00   0.0   0.063   0.000   14.7    76   10.5   14.5    0.00   696    1    100.0   30 
23/02/24  14.00   14.9   15.3   14.9    76   10.7   1.6    SW   0.80  16.1   WSW   14.9   14.7   14.7   15.2   999.1  0.00   0.0    76     3.27    160     0.0  0.00   0.0   0.072   0.000   14.7    76   10.5   14.5    0.05   702    1    100.0   30 
23/02/24  14.30   14.3   15.2   14.2    75    9.9   3.2    SE   1.61  11.3   ESE   14.3   14.0   14.0   14.9   999.1  0.00   0.0    89     3.83    214     0.0  0.00   0.0   0.084   0.000   14.7    76   10.5   14.5    0.00   693    1    100.0   30 
23/02/24  15.00   14.5   14.5   14.2    76   10.3   0.0   NNW   0.00   6.4   NNW   14.5   14.3   14.3   14.6   999.1  0.00   0.0    56     2.41     67     0.0  0.00   0.0   0.080   0.000   14.7    75   10.3   14.4    0.05   699    1    100.0   30 
23/02/24  15.30   14.0   14.5   14.0    69    8.4   6.4   NNE   3.22  16.1     N   14.0   13.6   13.6   13.5   999.4  0.00   0.0    41     1.76     53     0.0  0.00   0.0   0.090   0.000   14.6    75   10.2   14.3    0.00   696    1    100.0   30 
23/02/24  16.00   14.0   14.2   13.9    68    8.2   3.2    NE   1.61  12.9   NNE   14.0   13.5   13.5   12.6   999.3  0.00   0.0    45     1.94     69     0.0  0.00   0.0   0.090   0.000   14.6    74   10.0   14.3    0.05   693    1    100.0   30 
23/02/24  16.30   14.1   14.1   14.0    68    8.2   0.0     E   0.00   6.4     E   14.1   13.6   13.6   12.8   999.7  0.00   0.0    56     2.41     65     0.0  0.00   0.0   0.089   0.000   14.6    74   10.0   14.3    0.00   701    1    100.0   30 
23/02/24  17.00   14.1   14.1   13.8    66    7.8   1.6     E   0.80   6.4   SSE   14.1   13.6   13.6   12.8   999.9  0.00   0.0    53     2.28     69     0.0  0.00   0.0   0.088   0.000   14.6    74   10.0   14.3    0.05   694    1    100.0   30 
23/02/24  17.30   14.5   14.5   14.0    45    2.7   4.8    NW   2.41  20.9   WNW   14.5   13.2   13.2   12.0  1000.1  0.00   0.0    35     1.51     51     0.0  0.00   0.0   0.080   0.000   14.6    72    9.6   14.2    0.00   697    1    100.0   30 
23/02/24  18.00   14.4   14.8   14.3    39    0.6  12.9   WNW   6.44  35.4   WNW   13.3   12.9   11.8   10.3  1000.4  0.00   0.0     5     0.22     14     0.0  0.00   0.0   0.082   0.000   14.5    69    8.9   14.1    0.08   699    1    100.0   30 
23/02/24  18.30   12.0   14.5   12.0    62    4.9  12.9   WNW   6.44  33.8     W   10.4   11.4    9.8    8.3  1001.5  0.00   0.0     0     0.00      0     0.0  0.00   0.0   0.132   0.000   14.4    64    7.7   13.8    0.00   691    1    100.0   30 
23/02/24  19.00   13.2   13.3   11.9    51    3.3   6.4     W   3.22  30.6   WSW   13.1   12.2   12.1   10.4  1002.1  0.00   0.0     0     0.00      0     0.0  0.00   0.0   0.106   0.000   14.4    65    7.9   13.9    0.05   699    1    100.0   30 
23/02/24  19.30   12.8   13.2   12.8    59    5.0   3.2   WSW   1.61  16.1     W   12.8   12.1   12.1   10.5  1002.1  0.00   0.0     0     0.00      0     0.0  0.00   0.0   0.115   0.000   14.3    65    7.8   13.8    0.00   695    1    100.0   30 
23/02/24  20.00   13.0   13.1   12.8    55    4.2   1.6     W   0.80  16.1   WSW   13.0   12.2   12.2   10.6  1002.6  0.00   0.0     0     0.00      0     0.0  0.00   0.0   0.111   0.000   14.3    66    8.1   13.8    0.03   701    1    100.0   30 
23/02/24  20.30   13.3   13.4   13.0    52    3.7   6.4     W   3.22  17.7    NW   13.2   12.3   12.2   10.6  1003.0  0.00   0.0     0     0.00      0     0.0  0.00   0.0   0.104   0.000   14.3    65    7.8   13.8    0.00   695    1    100.0   30 
23/02/24  21.00   13.3   13.4   13.3    56    4.7   8.0     W   4.02  27.4   WSW   12.9   12.4   12.1   10.4  1003.7  0.00   0.0     0     0.00      0     0.0  0.00   0.0   0.105   0.000   14.3    65    7.8   13.7    0.05   687    1    100.0   30 
23/02/24  21.30   13.3   13.3   13.2    58    5.2   9.7     W   4.83  27.4    SW   12.6   12.5   11.8   10.2  1004.1  0.00   0.0     0     0.00      0     0.0  0.00   0.0   0.105   0.000   14.3    65    7.8   13.7    0.00   689    1    100.0   30 
23/02/24  22.00   13.2   13.4   13.2    60    5.6  11.3     W   5.63  32.2   WSW   12.3   12.5   11.6   10.1  1004.7  0.00   0.0     0     0.00      0     0.0  0.00   0.0   0.106   0.000   14.2    65    7.7   13.7    0.05   683    1     99.9   30 
23/02/24  22.30   13.3   13.3   13.2    58    5.2  12.9     W   6.44  38.6     W   12.0   12.5   11.2    9.7  1004.9  0.00   0.0     0     0.00      0     0.0  0.00   0.0   0.105   0.000   14.2    64    7.5   13.6    0.00   687    1    100.0   30 
23/02/24  23.00   13.2   13.4   13.1    60    5.6  11.3     W   5.63  32.2   WSW   12.2   12.4   11.5    9.9  1005.4  0.00   0.0     0     0.00      0     0.0  0.00   0.0   0.108   0.000   14.2    63    7.3   13.6    0.05   683    1     99.9   30 
23/02/24  23.30   13.0   13.2   12.9    63    6.1   8.0     W   4.02  22.5     W   12.6   12.4   11.9   10.4  1005.6  0.00   0.0     0     0.00      0     0.0  0.00   0.0   0.111   0.000   14.2    64    7.5   13.6    0.00   699    1    100.0   30 
24/02/24  00.00   12.8   13.1   12.8    58    4.8   6.4     W   3.22  19.3    SW   12.6   12.1   11.8   10.2  1005.6  0.00   0.0     0     0.00      0     0.0  0.00   0.0   0.115   0.000   14.2    63    7.3   13.6    0.03   693    1    100.0   30 
24/02/24   0.30   11.3   12.9   11.3    63    4.5   3.2     W   1.61  16.1   WNW   11.3   10.8   10.8    9.2  1006.3  0.00   0.0     0     0.00      0     0.0  0.00   0.0   0.147   0.000   14.2    62    7.0   13.5    0.00   699    1    100.0   30 
24/02/24   1.00   10.0   11.2   10.0    67    4.1   4.8   ENE   2.41  11.3    NE    9.8    9.7    9.6    7.9  1006.8  0.00   0.0     0     0.00      0     0.0  0.00   0.0   0.174   0.000   14.1    60    6.5   13.4    0.03   693    1    100.0   30 
24/02/24   1.30    9.2   10.1    9.0    69    3.8   4.8    NE   2.41  11.3   NNE    8.9    8.9    8.6    6.9  1007.0  0.00   0.0     0     0.00      0     0.0  0.00   0.0   0.191   0.000   14.1    59    6.2   13.3    0.00   701    1    100.0   30 
24/02/24   2.00    7.8    9.2    7.8    71    2.9   1.6     N   0.80   8.0   NNE    7.8    7.6    7.6    5.9  1007.3  0.00   0.0     0     0.00      0     0.0  0.00   0.0   0.219   0.000   13.9    58    5.8   13.2    0.03   691    1    100.0   30 
24/02/24   2.30    7.1    7.8    7.1    71    2.2   3.2     N   1.61   6.4     N    7.1    6.8    6.8    5.1  1007.5  0.00   0.0     0     0.00      0     0.0  0.00   0.0   0.235   0.000   13.9    58    5.8   13.1    0.00   700    1    100.0   30 
24/02/24   3.00    6.4    7.1    6.2    76    2.5   1.6   NNE   0.80   6.4   NNE    6.4    6.2    6.2    4.6  1007.5  0.00   0.0     0     0.00      0     0.0  0.00   0.0   0.248   0.000   13.8    57    5.5   13.0    0.00   695    1    100.0   30 
24/02/24   3.30    5.9    6.8    5.9    77    2.2   3.2    NE   1.61   9.7    NE    5.9    5.7    5.7    4.0  1007.8  0.00   0.0     0     0.00      0     0.0  0.00   0.0   0.258   0.000   13.7    57    5.3   12.9    0.00   694    1    100.0   30 
24/02/24   4.00    5.9    6.6    5.9    77    2.2   3.2    NE   1.61   6.4    NE    5.9    5.7    5.7    4.0  1007.5  0.00   0.0     0     0.00      0     0.0  0.00   0.0   0.258   0.000   13.7    57    5.3   12.8    0.00   701    1    100.0   30 
24/02/24   4.30    5.6    6.2    5.6    78    2.0   3.2   NNW   1.61   6.4   NNW    5.6    5.4    5.4    3.7  1007.4  0.00   0.0     0     0.00      0     0.0  0.00   0.0   0.266   0.000   13.6    56    5.0   12.8    0.00   695    1    100.0   30 
24/02/24   5.00    5.6    6.0    5.3    78    2.0   1.6   NNW   0.80   4.8   NNW    5.6    5.4    5.4    3.7  1007.8  0.00   0.0     0     0.00      0     0.0  0.00   0.0   0.266   0.000   13.6    56    4.9   12.7    0.00   692    1    100.0   30 
24/02/24   5.30    5.2    6.0    5.2    78    1.7   3.2   ENE   1.61   8.0   NNE    5.2    5.1    5.0    3.3  1008.1  0.00   0.0     0     0.00      0     0.0  0.00   0.0   0.273   0.000   13.5    56    4.9   12.7    0.00   702    1    100.0   30 
24/02/24   6.00    4.8    5.3    4.8    79    1.5   3.2   ENE   1.61   8.0   ENE    4.8    4.7    4.6    2.9  1007.9  0.00   0.0     0     0.00      0     0.0  0.00   0.0   0.281   0.000   13.4    55    4.5   12.5    0.00   701    1    100.0   30 
24/02/24   6.30    4.3    4.9    4.2    80    1.2   0.0   ENE   0.00   4.8   ENE    4.3    4.2    4.2    2.4  1008.0  0.00   0.0     0     0.00      0     0.0  0.00   0.0   0.292   0.000   13.3    55    4.5   12.4    0.00   685    1    100.0   30 
24/02/24   7.00    4.6    5.2    4.3    80    1.5   3.2   ENE   1.61   6.4   ENE    4.5    4.4    4.3    2.6  1008.2  0.00   0.0     0     0.00      0     0.0  0.00   0.0   0.286   0.000   13.3    54    4.2   12.4    0.00   702    1    100.0   30 
24/02/24   7.30    4.5    4.7    4.1    81    1.5   1.6   ENE   0.80   6.4   ENE    4.5    4.3    4.3    2.7  1008.3  0.00   0.0    10     0.43     25     0.0  0.00   0.0   0.288   0.000   13.2    54    4.1   12.3    0.00   701    1    100.0   30 
24/02/24   8.00    4.7    4.7    4.4    82    1.9   3.2   ENE   1.61   8.0   ENE    4.6    4.5    4.4    3.1  1008.7  0.00   0.0    28     1.20     40     0.0  0.00   0.0   0.285   0.000   13.2    54    4.1   12.3    0.00   693    1    100.0   30 
24/02/24   8.30    6.4    6.4    4.7    81    3.4   1.6    NE   0.80   8.0    NE    6.4    6.3    6.3    7.8  1009.1  0.00   0.0   122     5.25    186     0.0  0.00   0.0   0.248   0.000   13.2    55    4.3   12.3    0.00   693    1    100.0   30 
24/02/24   9.00    8.8    8.8    6.4    80    5.6   0.0   ---   0.00   0.0   ---    8.8    8.8    8.8   12.5  1009.1  0.00   0.0   256    11.01    322     0.0  0.00   0.0   0.198   0.000   13.2    57    4.9   12.4    0.08   703    1    100.0   30 
24/02/24   9.30   11.5   11.5    8.8    76    7.4   0.0   ---   0.00   0.0   ---   11.5   11.3   11.3   14.9  1009.3  0.00   0.0   242    10.41    290     0.0  0.00   0.0   0.142   0.000   13.3    58    5.2   12.6    0.00   691    1    100.0   30 
24/02/24  10.00   13.6   13.7   11.5    74    9.1   6.4    SE   3.22  19.3    SE   13.6   13.3   13.2   17.7  1009.2  0.00   0.0   308    13.25    410     0.0  0.00   0.0   0.098   0.000   13.5    59    5.6   12.7    0.15   696    1    100.0   30 
24/02/24  10.30   13.9   13.9   13.6    76    9.7   8.0    SE   4.02  22.5   SSE   13.6   13.6   13.3   17.9  1009.3  0.00   0.0   327    14.06    413     0.0  0.00   0.0   0.093   0.000   13.7    61    6.3   13.0    0.00   700    1    100.0   30 
24/02/24  11.00   14.2   14.2   13.8    74    9.6   8.0    SE   4.02  20.9    SE   13.9   13.8   13.6   18.7  1009.4  0.00   0.0   390    16.77    485     0.0  0.00   0.0   0.087   0.000   13.8    62    6.6   13.1    0.23   695    1    100.0   30 
24/02/24  11.30   14.9   14.9   14.2    63    7.9   6.4   SSE   3.22  16.1    SE   14.9   14.3   14.3   19.4  1009.2  0.00   0.0   454    19.52    615     0.0  0.00   0.0   0.072   0.000   13.9    63    7.0   13.3    0.00   695    1    100.0   30 
24/02/24  12.00   15.3   15.4   14.9    66    9.0   6.4     S   3.22  17.7   SSE   15.3   14.8   14.8   21.7  1009.3  0.00   0.0   581    24.99    698     0.0  0.00   0.0   0.064   0.000   14.1    64    7.4   13.5    0.30   700    1    100.0   30 
24/02/24  12.30   15.4   15.6   15.1    63    8.4   6.4     S   3.22  17.7   SSE   15.4   14.8   14.8   22.2  1009.2  0.00   0.0   607    26.10    673     0.0  0.00   0.0   0.061   0.000   14.3    64    7.6   13.7    0.00   696    1    100.0   30 
24/02/24  13.00   15.1   15.4   15.1    64    8.3   9.7     S   4.83  20.9     S   14.7   14.4   14.1   21.9  1009.2  0.00   0.0   620    26.66    645     0.0  0.00   0.0   0.068   0.000   14.6    64    7.8   13.9    0.38   694    1    100.0   30 
24/02/24  13.30   15.1   15.2   14.6    67    9.0   9.7     S   4.83  19.3    SE   14.7   14.6   14.2   21.1  1009.1  0.00   0.0   523    22.49    666     0.0  0.00   0.0   0.068   0.000   14.8    64    8.0   14.2    0.00   693    1    100.0   30 
24/02/24  14.00   14.5   15.1   14.4    68    8.7   9.7   SSW   4.83  20.9   SSW   14.1   14.0   13.6   18.6  1008.9  0.00   0.0   382    16.43    631     0.0  0.00   0.0   0.080   0.000   14.8    64    8.1   14.2    0.30   700    1    100.0   30 
24/02/24  14.30   14.3   14.9   14.3    68    8.4   9.7     S   4.83  20.9     S   13.8   13.8   13.3   18.8  1009.1  0.00   0.0   373    16.04    657     0.0  0.00   0.0   0.084   0.000   14.9    64    8.2   14.3    0.00   695    1    100.0   30 
24/02/24  15.00   14.5   14.5   14.3    68    8.7   8.0     S   4.02  25.7   SSE   14.3   14.0   13.8   17.3  1009.0  0.00   0.0   226     9.72    536     0.0  0.00   0.0   0.080   0.000   14.8    64    8.1   14.2    0.20   694    1    100.0   30 
24/02/24  15.30   14.4   14.6   14.3    69    8.8   9.7   SSW   4.83  22.5   SSE   14.0   14.0   13.6   17.4  1009.1  0.00   0.0   238    10.24    533     0.0  0.00   0.0   0.081   0.000   14.9    64    8.1   14.3    0.00   700    1    100.0   30 
24/02/24  16.00   14.2   14.6   14.2    68    8.3   8.0   SSW   4.02  25.7   SSE   13.9   13.7   13.4   13.3  1009.1  0.00   0.0   145     6.24    468     0.0  0.00   0.0   0.087   0.000   14.8    64    8.1   14.2    0.15   694    1    100.0   30 
24/02/24  16.30   14.0   14.2   14.0    68    8.2   3.2   SSW   1.61  12.9   SSW   14.0   13.5   13.5   12.7  1008.9  0.00   0.0    82     3.53    134     0.0  0.00   0.0   0.090   0.000   14.7    65    8.2   14.1    0.00   698    1    100.0   30 
24/02/24  17.00   13.6   14.0   12.6    69    8.0   6.4    NE   3.22  30.6   SSE   13.6   13.2   13.1   11.4  1009.1  0.00   0.0    12     0.52     19     0.0  0.00   0.0   0.098   0.000   14.6    65    8.0   14.0    0.05   696    1    100.0   30 
24/02/24  17.30   11.9   13.6   11.9    71    6.8   6.4   NNW   3.22  19.3    SW   11.6   11.5   11.2    9.6  1009.6  0.00   0.0    19     0.82     21     0.0  0.00   0.0   0.134   0.000   14.4    64    7.7   13.8    0.00   694    1    100.0   30 
24/02/24  18.00   11.3   11.9   11.3    71    6.2   9.7   NNE   4.83  20.9   NNE   10.2   10.9    9.9    8.2  1009.8  0.00   0.0    12     0.52     19     0.0  0.00   0.0   0.147   0.000   14.3    63    7.3   13.7    0.03   701    1    100.0   30 
24/02/24  18.30   10.8   11.3   10.8    71    5.8   4.8   NNW   2.41  16.1    NW   10.8   10.6   10.5    8.6  1010.3  0.00   0.0     0     0.00      0     0.0  0.00   0.0   0.156   0.000   14.2    62    7.0   13.5    0.00   693    1    100.0   30 
24/02/24  19.00   10.3   10.9   10.3    74    5.9   3.2   NNW   1.61  11.3    NW   10.3   10.2   10.2    8.3  1010.6  0.00   0.0     0     0.00      0     0.0  0.00   0.0   0.167   0.000   14.1    63    7.2   13.5    0.03   702    1    100.0   30 
24/02/24  19.30    9.6   10.3    9.6    78    6.0   1.6   NNW   0.80   4.8   NNW    9.6    9.5    9.5    7.6  1010.8  0.00   0.0     0     0.00      0     0.0  0.00   0.0   0.182   0.000   14.1    63    7.1   13.4    0.00   691    1    100.0   30 
24/02/24  20.00    9.3    9.6    9.3    79    5.9   0.0     N   0.00   3.2     N    9.3    9.3    9.3    7.4  1010.8  0.00   0.0     0     0.00      0     0.0  0.00   0.0   0.188   0.000   14.0    63    7.1   13.4    0.00   702    1    100.0   30 
24/02/24  20.30    9.0    9.3    8.9    80    5.7   0.0   ---   0.00   0.0   ---    9.0    8.9    8.9    7.1  1010.8  0.00   0.0     0     0.00      0     0.0  0.00   0.0   0.194   0.000   13.9    63    7.0   13.3    0.00   690    1    100.0   30 
24/02/24  21.00    8.5    9.0    8.4    81    5.4   0.0     N   0.00   3.2     N    8.5    8.4    8.4    6.5  1010.9  0.00   0.0     0     0.00      0     0.0  0.00   0.0   0.205   0.000   13.9    63    7.0   13.3    0.00   701    1    100.0   30 
24/02/24  21.30    7.8    8.5    7.8    82    4.9   0.0     N   0.00   1.6     N    7.8    7.7    7.7    5.8  1011.1  0.00   0.0     0     0.00      0     0.0  0.00   0.0   0.220   0.000   13.8    63    6.9   13.2    0.00   693    1    100.0   30 
24/02/24  22.00    7.3    7.8    7.3    83    4.6   0.0     N   0.00   1.6     N    7.3    7.3    7.3    5.3  1011.1  0.00   0.0     0     0.00      0     0.0  0.00   0.0   0.229   0.000   13.7    62    6.6   13.1    0.00   699    1    100.0   30 
24/02/24  22.30    7.4    7.6    7.2    83    4.7   0.0     N   0.00   3.2     N    7.4    7.3    7.3    5.4  1011.1  0.00   0.0     0     0.00      0     0.0  0.00   0.0   0.228   0.000   13.7    62    6.5   13.0    0.00   700    1    100.0   30 
24/02/24  23.00    7.7    8.3    7.4    83    5.0   0.0   NNW   0.00   3.2     N    7.7    7.7    7.7    5.7  1010.9  0.00   0.0     0     0.00      0     0.0  0.00   0.0   0.221   0.000   13.6    62    6.5   12.9    0.00   691    1    100.0   30 
24/02/24  23.30    7.8    7.8    7.5    83    5.1   0.0   NNW   0.00   3.2   NNW    7.8    7.7    7.7    5.8  1010.8  0.00   0.0     0     0.00      0     0.0  0.00   0.0   0.220   0.000   13.6    62    6.4   12.9    0.00   701    1    100.0   30 
25/02/24  00.00    8.3    8.3    7.6    84    5.7   1.6   NNW   0.80   6.4     N    8.3    8.3    8.3    6.4  1010.9  0.00   0.0     0     0.00      0     0.0  0.00   0.0   0.209   0.000   13.5    62    6.4   12.8    0.00   692    1    100.0   30 
25/02/24   0.30    9.3    9.3    8.3    83    6.6   3.2   NNW   1.61  12.9   SSW    9.3    9.3    9.3    7.4  1011.0  0.00   0.0     0     0.00      0     0.0  0.00   0.0   0.188   0.000   13.5    63    6.6   12.9    0.00   697    1    100.0   30 
25/02/24   1.00    9.2    9.3    9.1    83    6.4   1.6    NE   0.80   6.4    NE    9.2    9.2    9.2    7.3  1010.9  0.00   0.0     0     0.00      0     0.0  0.00   0.0   0.191   0.000   13.5    64    6.8   12.9    0.00   699    1    100.0   30 
25/02/24   1.30    8.6    9.1    8.5    84    6.0   0.0   NNE   0.00   3.2    NE    8.6    8.6    8.6    6.7  1011.2  0.00   0.0     0     0.00      0     0.0  0.00   0.0   0.204   0.000   13.5    65    7.0   12.9    0.00   696    1    100.0   30 
25/02/24   2.00    8.3    8.6    8.2    85    5.9   0.0    NE   0.00   4.8   NNE    8.3    8.3    8.3    6.4  1011.1  0.00   0.0     0     0.00      0     0.0  0.00   0.0   0.209   0.000   13.4    65    7.0   12.9    0.00   700    1    100.0   30 
25/02/24   2.30    8.9    8.9    8.3    85    6.5   0.0   WNW   0.00   3.2    NE    8.9    8.9    8.9    7.0  1011.0  0.00   0.0     0     0.00      0     0.0  0.00   0.0   0.197   0.000   13.4    65    7.0   12.9    0.00   689    1    100.0   30 
25/02/24   3.00    8.8    8.9    8.7    86    6.6   1.6   NNW   0.80   3.2    NW    8.8    8.8    8.8    6.9  1010.7  1.02   4.8     0     0.00      0     0.0  0.00   0.0   0.198   0.000   13.4    66    7.2   12.9    0.00   701    1    100.0   30 
25/02/24   3.30    9.0    9.0    8.8    86    6.8   3.2   NNE   1.61   4.8   NNE    9.0    9.1    9.1    7.2  1010.6  0.00   0.0     0     0.00      0     0.0  0.00   0.0   0.194   0.000   13.4    66    7.2   12.9    0.00   689    1    100.0   30 
25/02/24   4.00    9.3    9.3    9.0    86    7.1   1.6     N   0.80   4.8     N    9.3    9.3    9.3    7.5  1010.7  0.00   0.0     0     0.00      0     0.0  0.00   0.0   0.189   0.000   13.4    67    7.4   12.9    0.00   699    1    100.0   30 
25/02/24   4.30    9.7    9.7    9.3    86    7.5   1.6    NE   0.80   4.8    NE    9.7    9.8    9.8    7.9  1010.9  0.00   0.0     0     0.00      0     0.0  0.00   0.0   0.179   0.000   13.4    67    7.4   12.9    0.00   693    1    100.0   30 
25/02/24   5.00   10.2   10.3    9.7    84    7.6   1.6   NNE   0.80   6.4   NNE   10.2   10.2   10.2    8.3  1011.0  0.00   0.0     0     0.00      0     0.0  0.00   0.0   0.170   0.000   13.4    67    7.4   12.9    0.00   701    1    100.0   30 
25/02/24   5.30   10.2   10.3   10.0    83    7.4   6.4    NW   3.22  16.1   WNW    9.6   10.2    9.6    7.7  1011.3  0.00   0.0     0     0.00      0     0.0  0.00   0.0   0.170   0.000   13.4    67    7.4   12.9    0.00   695    1    100.0   30 
25/02/24   6.00    9.7   10.2    9.5    83    6.9   6.4    NW   3.22  19.3   NNE    9.0    9.7    9.0    7.2  1011.6  0.00   0.0     0     0.00      0     0.0  0.00   0.0   0.181   0.000   13.4    67    7.4   12.9    0.00   700    1    100.0   30 
25/02/24   6.30    9.7    9.7    9.4    84    7.1   4.8    NW   2.41  14.5   WNW    9.4    9.7    9.5    7.7  1011.6  0.00   0.0     0     0.00      0     0.0  0.00   0.0   0.181   0.000   13.4    67    7.4   12.9    0.00   697    1    100.0   30 
25/02/24   7.00    9.4    9.7    9.4    85    7.0   6.4    NW   3.22  16.1   NNE    8.7    9.4    8.7    6.9  1011.6  0.00   0.0     0     0.00      0     0.0  0.00   0.0   0.186   0.000   13.4    68    7.6   12.9    0.00   697    1    100.0   30 
25/02/24   7.30    9.3    9.4    9.3    84    6.8   3.2   NNW   1.61   9.7   NNW    9.3    9.3    9.3    7.6  1011.7  0.00   0.0     6     0.26     14     0.0  0.00   0.0   0.188   0.000   13.3    68    7.5   12.8    0.00   697    1    100.0   30 
25/02/24   8.00    9.7    9.7    9.2    84    7.1   1.6   NNW   0.80   4.8   NNW    9.7    9.7    9.7    8.4  1012.1  0.00   0.0    45     1.94     95     0.0  0.00   0.0   0.181   0.000   13.3    68    7.5   12.8    0.00   695    1    100.0   30 
25/02/24   8.30    9.8    9.8    9.4    84    7.3   1.6   NNE   0.80   4.8   NNE    9.8    9.9    9.9   11.9  1012.3  0.00   0.0   147     6.32    204     0.0  0.00   0.0   0.177   0.000   13.3    68    7.5   12.8    0.00   699    1    100.0   30 
25/02/24   9.00   11.4   11.4    9.8    83    8.7   6.4   NNE   3.22  16.1   NNE   11.1   11.4   11.0   16.3  1012.4  0.00   0.0   324    13.93    410     0.0  0.00   0.0   0.144   0.000   13.4    68    7.6   12.9    0.10   693    1    100.0   30 
25/02/24   9.30   11.6   11.6   11.4    81    8.5   4.8   NNE   2.41  12.9   NNE   11.6   11.5   11.5   15.3  1012.4  0.00   0.0   245    10.54    501     0.0  0.00   0.0   0.140   0.000   13.4    69    7.9   13.0    0.00   692    1    100.0   30 
25/02/24  10.00   12.1   12.1   11.7    77    8.2   6.4   NNE   3.22  14.5    NE   11.8   11.9   11.6   16.9  1012.5  0.00   0.0   398    17.12    496     0.0  0.00   0.0   0.130   0.000   13.6    69    8.0   13.1    0.18   701    1    100.0   30 
25/02/24  10.30   12.8   12.8   12.1    72    7.9   6.4    NE   3.22  19.3     N   12.6   12.4   12.2   18.3  1012.5  0.00   0.0   475    20.43    503     0.0  0.00   0.0   0.115   0.000   13.6    68    7.8   13.1    0.00   692    1    100.0   30 
25/02/24  11.00   13.1   13.1   12.7    70    7.7  12.9   NNE   6.44  22.5    NE   11.7   12.6   11.3   17.4  1012.3  0.00   0.0   533    22.92    561     0.0  0.00   0.0   0.110   0.000   13.7    67    7.7   13.2    0.28   682    1     99.7   30 
25/02/24  11.30   13.2   13.3   12.9    70    7.9  14.5   NNE   7.24  24.1   NNE   11.6   12.8   11.1   17.4  1012.3  0.00   0.0   580    24.94    601     0.0  0.00   0.0   0.106   0.000   13.8    67    7.8   13.3    0.00   695    1    100.0   30 
25/02/24  12.00   13.3   13.4   13.2    69    7.7  11.3   NNE   5.63  20.9   NNE   12.4   12.8   11.9   19.0  1012.0  0.00   0.0   610    26.23    619     0.0  0.00   0.0   0.105   0.000   13.9    66    7.6   13.3    0.36   696    1    100.0   30 
25/02/24  12.30   13.8   13.9   13.2    67    7.8  12.9    NE   6.44  24.1    NE   12.7   13.3   12.2   19.3  1011.8  0.00   0.0   626    26.92    654     0.0  0.00   0.0   0.094   0.000   14.1    66    7.8   13.5    0.00   696    1    100.0   30 
25/02/24  13.00   13.7   14.1   13.6    63    6.8  14.5     N   7.24  25.7     N   12.1   13.1   11.5   16.2  1011.6  0.00   0.0   418    17.98    703     0.0  0.00   0.0   0.096   0.000   14.1    64    7.4   13.5    0.33   695    1    100.0   30 
25/02/24  13.30   14.3   14.3   13.6    61    6.9  12.9   NNW   6.44  25.7     N   13.3   13.7   12.6   19.2  1011.8  0.00   0.0   542    23.31    671     0.0  0.00   0.0   0.083   0.000   14.4    64    7.7   13.8    0.00   701    1    100.0   30 
25/02/24  14.00   13.9   14.4   13.9    64    7.2  14.5     N   7.24  27.4     N   12.3   13.3   11.7   17.7  1011.3  0.00   0.0   481    20.69    680     0.0  0.00   0.0   0.091   0.000   14.6    62    7.4   13.9    0.33   694    1    100.0   30 
25/02/24  14.30   13.7   14.3   13.6    67    7.6  11.3     N   5.63  22.5   NNW   12.8   13.2   12.3   16.6  1011.2  0.00   0.0   308    13.25    622     0.0  0.00   0.0   0.097   0.000   14.7    61    7.2   14.0    0.00   694    1    100.0   30 
25/02/24  15.00   14.1   14.2   13.7    67    8.1  12.9   NNW   6.44  25.7   NNW   13.0   13.6   12.5   17.1  1011.0  0.00   0.0   314    13.50    538     0.0  0.00   0.0   0.088   0.000   14.8    61    7.3   14.1    0.23   697    1    100.0   30 
25/02/24  15.30   14.0   14.3   13.9    64    7.3  14.5   NNW   7.24  24.1   NNE   12.4   13.4   11.8   19.1  1011.0  0.00   0.0   418    17.98    469     0.0  0.00   0.0   0.090   0.000   15.1    60    7.4   14.4    0.00   692    1    100.0   30 
25/02/24  16.00   13.9   14.2   13.9    66    7.7  14.5    NW   7.24  27.4    NW   12.3   13.4   11.8   13.8  1011.0  0.00   0.0   341    14.66    406     0.0  0.00   0.0   0.091   0.000   15.2    59    7.3   14.4    0.25   694    1    100.0   30 
25/02/24  16.30   13.7   14.1   13.7    66    7.4  12.9     N   6.44  25.7     N   12.4   13.1   11.9   13.3  1010.9  0.00   0.0   280    12.04    315     0.0  0.00   0.0   0.097   0.000   15.1    59    7.1   14.3    0.00   700    1    100.0   30 
25/02/24  17.00   13.4   13.8   13.4    67    7.4  11.3   NNW   5.63  22.5    NW   12.6   12.9   12.1   12.7  1011.0  0.00   0.0   206     8.86    264     0.0  0.00   0.0   0.102   0.000   14.7    59    6.8   13.9    0.15   693    1    100.0   30 
25/02/24  17.30   12.6   13.4   12.6    69    7.1   9.7   NNW   4.83  17.7   NNW   11.8   12.2   11.3   10.4  1010.8  0.00   0.0    77     3.31    135     0.0  0.00   0.0   0.119   0.000   14.6    60    6.9   13.8    0.00   694    1    100.0   30 
25/02/24  18.00   12.1   12.7   12.1    70    6.8   8.0   NNW   4.02  17.7     N   11.5   11.7   11.1    9.3  1010.7  0.00   0.0     8     0.34     16     0.0  0.00   0.0   0.130   0.000   14.4    60    6.7   13.7    0.03   701    1    100.0   30 
25/02/24  18.30   11.7   12.1   11.7    71    6.6   6.4   NNW   3.22  12.9    NW   11.3   11.3   10.9    9.1  1011.0  0.00   0.0     0     0.00      0     0.0  0.00   0.0   0.138   0.000   14.2    60    6.6   13.5    0.00   692    1    100.0   30 
25/02/24  19.00   11.2   11.7   11.2    71    6.1   3.2   NNW   1.61   8.0   NNW   11.2   10.8   10.8    8.9  1011.1  0.00   0.0     0     0.00      0     0.0  0.00   0.0   0.149   0.000   14.1    61    6.7   13.4    0.00   703    1    100.0   30 
25/02/24  19.30   10.0   11.2   10.0    72    5.2   1.6   NNW   0.80   6.4   NNW   10.0    9.8    9.8    7.9  1011.2  0.00   0.0     0     0.00      0     0.0  0.00   0.0   0.174   0.000   14.1    61    6.6   13.4    0.00   688    1    100.0   30 
25/02/24  20.00    8.7    9.9    8.7    77    4.9   1.6   NNE   0.80   6.4   NNE    8.7    8.6    8.6    6.7  1010.9  0.00   0.0     0     0.00      0     0.0  0.00   0.0   0.200   0.000   13.9    61    6.5   13.3    0.00   703    1    100.0   30 
25/02/24  20.30    8.8    8.9    8.7    79    5.4   1.6   NNE   0.80   4.8   NNE    8.8    8.8    8.8    6.8  1010.8  0.00   0.0     0     0.00      0     0.0  0.00   0.0   0.198   0.000   13.9    62    6.7   13.2    0.00   691    1    100.0   30 
25/02/24  21.00    8.0    8.8    8.0    80    4.8   1.6   NNE   0.80   4.8   NNE    8.0    7.9    7.9    5.9  1010.7  0.00   0.0     0     0.00      0     0.0  0.00   0.0   0.215   0.000   13.8    62    6.6   13.1    0.00   700    1    100.0   30 
25/02/24  21.30    8.3    8.4    7.9    81    5.3   1.6   NNE   0.80   6.4   NNE    8.3    8.2    8.2    6.3  1010.6  0.00   0.0     0     0.00      0     0.0  0.00   0.0   0.208   0.000   13.7    62    6.6   13.1    0.00   694    1    100.0   30 
25/02/24  22.00    8.2    8.3    8.1    82    5.3   0.0     N   0.00   3.2     N    8.2    8.2    8.2    6.2  1010.5  0.00   0.0     0     0.00      0     0.0  0.00   0.0   0.211   0.000   13.7    62    6.5   13.0    0.00   698    1    100.0   30 
25/02/24  22.30    7.9    8.3    7.8    82    5.1   0.0     N   0.00   3.2     N    7.9    7.9    7.9    5.9  1010.4  0.00   0.0     0     0.00      0     0.0  0.00   0.0   0.216   0.000   13.6    62    6.5   12.9    0.00   699    1    100.0   30 
25/02/24  23.00    7.8    8.0    7.8    83    5.1   0.0     N   0.00   4.8     N    7.8    7.8    7.8    5.8  1010.2  0.00   0.0     0     0.00      0     0.0  0.00   0.0   0.219   0.000   13.6    62    6.4   12.9    0.00   691    1    100.0   30 
25/02/24  23.30    7.4    7.8    7.4    83    4.7   0.0     N   0.00   4.8     N    7.4    7.4    7.4    5.4  1009.9  0.00   0.0     0     0.00      0     0.0  0.00   0.0   0.227   0.000   13.5    62    6.4   12.8    0.00   700    1    100.0   30 
26/02/24  00.00    7.5    7.6    7.4    84    5.0   0.0   ---   0.00   0.0   ---    7.5    7.4    7.4    5.5  1009.4  0.00   0.0     0     0.00      0     0.0  0.00   0.0   0.226   0.000   13.5    62    6.4   12.8    0.00   690    1    100.0   30 
26/02/24   0.30    7.4    7.6    7.4    84    4.9   0.0     N   0.00   4.8     N    7.4    7.4    7.4    5.4  1009.1  0.00   0.0     0     0.00      0     0.0  0.00   0.0   0.227   0.000   13.4    63    6.5   12.8    0.00   700    1    100.0   30 
26/02/24   1.00    8.1    8.1    7.4    84    5.6   0.0     N   0.00   4.8     N    8.1    8.1    8.1    6.2  1008.8  0.00   0.0     0     0.00      0     0.0  0.00   0.0   0.213   0.000   13.4    63    6.5   12.8    0.00   697    1    100.0   30 
26/02/24   1.30   11.4   11.4    8.1    82    8.4   3.2   ESE   1.61  16.1     E   11.4   11.3   11.3    9.5  1008.3  0.00   0.0     0     0.00      0     0.0  0.00   0.0   0.145   0.000   13.4    63    6.5   12.8    0.00   692    1    100.0   30 
26/02/24   2.00   12.8   12.8   11.4    73    8.1   6.4   SSE   3.22  19.3   SSE   12.6   12.4   12.2   10.4  1008.2  0.00   0.0     0     0.00      0     0.0  0.00   0.0   0.116   0.000   13.4    64    6.8   12.8    0.00   697    1    100.0   30 
26/02/24   2.30   12.7   12.9   12.7    73    8.0   8.0    SE   4.02  22.5   SSE   12.2   12.4   11.9   10.1  1007.5  0.00   0.0     0     0.00      0     0.0  0.00   0.0   0.117   0.000   13.5    65    7.0   12.9    0.00   695    1    100.0   30 
26/02/24   3.00   12.9   13.0   12.5    75    8.6   8.0    SE   4.02  22.5   SSE   12.5   12.7   12.2   10.4  1007.1  0.00   0.0     0     0.00      0     0.0  0.00   0.0   0.112   0.000   13.6    65    7.1   13.0    0.00   695    1    100.0   30 
26/02/24   3.30   13.5   13.5   12.9    68    7.7   8.0     S   4.02  22.5     S   13.1   13.0   12.6   10.8  1006.6  0.00   0.0     0     0.00      0     0.0  0.00   0.0   0.101   0.000   13.6    65    7.2   13.1    0.00   696    1    100.0   30 
26/02/24   4.00   13.5   13.7   13.4    72    8.5   9.7     S   4.83  25.7   SSW   12.9   13.1   12.5   10.7  1006.3  0.00   0.0     0     0.00      0     0.0  0.00   0.0   0.101   0.000   13.7    66    7.4   13.1    0.00   695    1    100.0   30 
26/02/24   4.30   13.4   13.5   13.3    73    8.6   9.7     S   4.83  24.1   SSE   12.7   13.0   12.3   10.6  1006.1  0.00   0.0     0     0.00      0     0.0  0.00   0.0   0.103   0.000   13.7    66    7.4   13.1    0.00   702    1    100.0   30 
26/02/24   5.00   13.4   13.5   13.3    70    8.1  11.3     S   5.63  30.6   SSE   12.6   13.0   12.1   10.3  1005.9  0.00   0.0     0     0.00      0     0.0  0.00   0.0   0.102   0.000   13.7    67    7.6   13.2    0.00   695    1    100.0   30 
26/02/24   5.30   13.2   13.5   13.2    69    7.6  12.9     S   6.44  32.2    SW   11.8   12.7   11.4    9.7  1005.7  0.00   0.0     0     0.00      0     0.0  0.00   0.0   0.108   0.000   13.7    67    7.7   13.2    0.00   697    1    100.0   30 
26/02/24   6.00   12.9   13.2   12.9    72    8.0  11.3     S   5.63  25.7     S   12.0   12.6   11.6    9.8  1005.4  0.00   0.0     0     0.00      0     0.0  0.00   0.0   0.112   0.000   13.7    67    7.7   13.2    0.03   699    1    100.0   30 
26/02/24   6.30   12.6   13.0   12.6    77    8.6  12.9   SSW   6.44  32.2   SSE   11.1   12.3   10.9    9.2  1005.1  0.00   0.0     0     0.00      0     0.0  0.00   0.0   0.120   0.000   13.7    67    7.7   13.2    0.00   687    1    100.0   30 
26/02/24   7.00   12.4   12.9   12.4    82    9.5  11.3     S   5.63  30.6   SSE   11.4   12.3   11.3    9.6  1005.0  0.00   0.0     0     0.00      0     0.0  0.00   0.0   0.123   0.000   13.7    68    7.9   13.2    0.00   702    1    100.0   30 
26/02/24   7.30   12.8   13.0   12.4    81    9.6  12.9     S   6.44  37.0     S   11.4   12.6   11.2    9.6  1004.8  0.25   0.0     0     0.00      0     0.0  0.00   0.0   0.116   0.000   13.7    68    7.9   13.2    0.00   692    1    100.0   30 
© www.elbaexplorer.com